<?xml version="1.0" encoding="UTF-8" standalone="no" ?>
<gpx xmlns="http://www.topografix.com/GPX/1/1" xmlns:xsi="http://www.w3.org/2001/XMLSchema-instance" xsi:schemaLocation="http://www.topografix.com/GPX/1/1 http://www.topografix.com/GPX/1/1/gpx.xsd" version="1.1" creator="VisuGPX - https://www.visugpx.com">
  <metadata>
    <name>Walking 2/2/22 1:26 pm</name>
    <desc><![CDATA[La Brède]]></desc>
  </metadata>
  <trk>
    <name><![CDATA[Walking 2/2/22 1:26 pm]]></name>
    <trkseg>
      <trkpt lat="44.8722" lon="-0.60954">
        <ele>15</ele>
        <time>2022-02-02T12:26:44Z</time>
      </trkpt>
      <trkpt lat="44.87219" lon="-0.60951">
        <ele>15</ele>
        <time>2022-02-02T12:26:54Z</time>
      </trkpt>
      <trkpt lat="44.87216" lon="-0.60939">
        <ele>14.3</ele>
        <time>2022-02-02T12:27:23Z</time>
      </trkpt>
      <trkpt lat="44.87217" lon="-0.60928">
        <ele>14.3</ele>
        <time>2022-02-02T12:27:35Z</time>
      </trkpt>
      <trkpt lat="44.87219" lon="-0.60915">
        <ele>14.2</ele>
        <time>2022-02-02T12:27:45Z</time>
      </trkpt>
      <trkpt lat="44.87222" lon="-0.60902">
        <ele>14.2</ele>
        <time>2022-02-02T12:27:53Z</time>
      </trkpt>
      <trkpt lat="44.87226" lon="-0.6089">
        <ele>14.2</ele>
        <time>2022-02-02T12:28:01Z</time>
      </trkpt>
      <trkpt lat="44.87228" lon="-0.60877">
        <ele>14.2</ele>
        <time>2022-02-02T12:28:11Z</time>
      </trkpt>
      <trkpt lat="44.8723" lon="-0.60863">
        <ele>14.1</ele>
        <time>2022-02-02T12:28:19Z</time>
      </trkpt>
      <trkpt lat="44.87233" lon="-0.60851">
        <ele>14</ele>
        <time>2022-02-02T12:28:28Z</time>
      </trkpt>
      <trkpt lat="44.87225" lon="-0.60843">
        <ele>14</ele>
        <time>2022-02-02T12:28:38Z</time>
      </trkpt>
      <trkpt lat="44.87217" lon="-0.60835">
        <ele>14</ele>
        <time>2022-02-02T12:28:48Z</time>
      </trkpt>
      <trkpt lat="44.87209" lon="-0.60828">
        <ele>14</ele>
        <time>2022-02-02T12:28:56Z</time>
      </trkpt>
      <trkpt lat="44.87202" lon="-0.60821">
        <ele>14</ele>
        <time>2022-02-02T12:29:06Z</time>
      </trkpt>
      <trkpt lat="44.87195" lon="-0.60812">
        <ele>14</ele>
        <time>2022-02-02T12:29:14Z</time>
      </trkpt>
      <trkpt lat="44.87185" lon="-0.60806">
        <ele>14</ele>
        <time>2022-02-02T12:29:18Z</time>
      </trkpt>
      <trkpt lat="44.87175" lon="-0.60802">
        <ele>14</ele>
        <time>2022-02-02T12:29:26Z</time>
      </trkpt>
      <trkpt lat="44.87173" lon="-0.60797">
        <ele>14</ele>
        <time>2022-02-02T12:29:41Z</time>
      </trkpt>
      <trkpt lat="44.8718" lon="-0.6079">
        <ele>14</ele>
        <time>2022-02-02T12:30:11Z</time>
      </trkpt>
      <trkpt lat="44.87183" lon="-0.60787">
        <ele>14</ele>
        <time>2022-02-02T12:30:22Z</time>
      </trkpt>
      <trkpt lat="44.87187" lon="-0.60777">
        <ele>13</ele>
        <time>2022-02-02T12:30:36Z</time>
      </trkpt>
      <trkpt lat="44.87188" lon="-0.60773">
        <ele>12.9</ele>
        <time>2022-02-02T12:30:38Z</time>
      </trkpt>
      <trkpt lat="44.87189" lon="-0.60759">
        <ele>12.8</ele>
        <time>2022-02-02T12:30:45Z</time>
      </trkpt>
      <trkpt lat="44.87193" lon="-0.60747">
        <ele>12.8</ele>
        <time>2022-02-02T12:30:52Z</time>
      </trkpt>
      <trkpt lat="44.87194" lon="-0.60733">
        <ele>12.8</ele>
        <time>2022-02-02T12:30:59Z</time>
      </trkpt>
      <trkpt lat="44.87196" lon="-0.6072">
        <ele>12.8</ele>
        <time>2022-02-02T12:31:05Z</time>
      </trkpt>
      <trkpt lat="44.87197" lon="-0.60706">
        <ele>12.7</ele>
        <time>2022-02-02T12:31:13Z</time>
      </trkpt>
      <trkpt lat="44.87199" lon="-0.60692">
        <ele>12.7</ele>
        <time>2022-02-02T12:31:20Z</time>
      </trkpt>
      <trkpt lat="44.872" lon="-0.60679">
        <ele>12.8</ele>
        <time>2022-02-02T12:31:25Z</time>
      </trkpt>
      <trkpt lat="44.87202" lon="-0.60665">
        <ele>12.9</ele>
        <time>2022-02-02T12:31:33Z</time>
      </trkpt>
      <trkpt lat="44.87203" lon="-0.6065">
        <ele>13.1</ele>
        <time>2022-02-02T12:31:42Z</time>
      </trkpt>
      <trkpt lat="44.87205" lon="-0.60638">
        <ele>13.2</ele>
        <time>2022-02-02T12:31:50Z</time>
      </trkpt>
      <trkpt lat="44.87206" lon="-0.60624">
        <ele>13.3</ele>
        <time>2022-02-02T12:31:57Z</time>
      </trkpt>
      <trkpt lat="44.87208" lon="-0.60612">
        <ele>13.4</ele>
        <time>2022-02-02T12:32:04Z</time>
      </trkpt>
      <trkpt lat="44.87211" lon="-0.60598">
        <ele>13.3</ele>
        <time>2022-02-02T12:32:11Z</time>
      </trkpt>
      <trkpt lat="44.87213" lon="-0.60583">
        <ele>13.2</ele>
        <time>2022-02-02T12:32:18Z</time>
      </trkpt>
      <trkpt lat="44.87214" lon="-0.60569">
        <ele>13.1</ele>
        <time>2022-02-02T12:32:26Z</time>
      </trkpt>
      <trkpt lat="44.87216" lon="-0.60556">
        <ele>13.1</ele>
        <time>2022-02-02T12:32:33Z</time>
      </trkpt>
      <trkpt lat="44.87219" lon="-0.60543">
        <ele>13</ele>
        <time>2022-02-02T12:32:42Z</time>
      </trkpt>
      <trkpt lat="44.87221" lon="-0.60515">
        <ele>12.9</ele>
        <time>2022-02-02T12:33:03Z</time>
      </trkpt>
      <trkpt lat="44.87221" lon="-0.605">
        <ele>12.8</ele>
        <time>2022-02-02T12:33:10Z</time>
      </trkpt>
      <trkpt lat="44.87222" lon="-0.60488">
        <ele>12.7</ele>
        <time>2022-02-02T12:33:16Z</time>
      </trkpt>
      <trkpt lat="44.87225" lon="-0.60473">
        <ele>12.7</ele>
        <time>2022-02-02T12:33:23Z</time>
      </trkpt>
      <trkpt lat="44.87227" lon="-0.60459">
        <ele>12.8</ele>
        <time>2022-02-02T12:33:31Z</time>
      </trkpt>
      <trkpt lat="44.87228" lon="-0.60446">
        <ele>12.9</ele>
        <time>2022-02-02T12:33:40Z</time>
      </trkpt>
      <trkpt lat="44.87231" lon="-0.60432">
        <ele>13.1</ele>
        <time>2022-02-02T12:33:48Z</time>
      </trkpt>
      <trkpt lat="44.87232" lon="-0.60419">
        <ele>13.3</ele>
        <time>2022-02-02T12:33:55Z</time>
      </trkpt>
      <trkpt lat="44.87235" lon="-0.60405">
        <ele>13.5</ele>
        <time>2022-02-02T12:34:02Z</time>
      </trkpt>
      <trkpt lat="44.87238" lon="-0.60391">
        <ele>13.5</ele>
        <time>2022-02-02T12:34:09Z</time>
      </trkpt>
      <trkpt lat="44.87239" lon="-0.60377">
        <ele>13.5</ele>
        <time>2022-02-02T12:34:16Z</time>
      </trkpt>
      <trkpt lat="44.87241" lon="-0.60363">
        <ele>13.5</ele>
        <time>2022-02-02T12:34:23Z</time>
      </trkpt>
      <trkpt lat="44.87244" lon="-0.6035">
        <ele>13.5</ele>
        <time>2022-02-02T12:34:30Z</time>
      </trkpt>
      <trkpt lat="44.87249" lon="-0.60337">
        <ele>13.4</ele>
        <time>2022-02-02T12:34:39Z</time>
      </trkpt>
      <trkpt lat="44.87252" lon="-0.60325">
        <ele>13.4</ele>
        <time>2022-02-02T12:34:46Z</time>
      </trkpt>
      <trkpt lat="44.87253" lon="-0.60312">
        <ele>13.3</ele>
        <time>2022-02-02T12:34:54Z</time>
      </trkpt>
      <trkpt lat="44.87256" lon="-0.60299">
        <ele>13.2</ele>
        <time>2022-02-02T12:35:04Z</time>
      </trkpt>
      <trkpt lat="44.87257" lon="-0.60286">
        <ele>13.1</ele>
        <time>2022-02-02T12:35:12Z</time>
      </trkpt>
      <trkpt lat="44.8726" lon="-0.60273">
        <ele>13</ele>
        <time>2022-02-02T12:35:19Z</time>
      </trkpt>
      <trkpt lat="44.87263" lon="-0.6026">
        <ele>12.9</ele>
        <time>2022-02-02T12:35:26Z</time>
      </trkpt>
      <trkpt lat="44.87266" lon="-0.60246">
        <ele>12.7</ele>
        <time>2022-02-02T12:35:35Z</time>
      </trkpt>
      <trkpt lat="44.87266" lon="-0.60233">
        <ele>12.5</ele>
        <time>2022-02-02T12:35:43Z</time>
      </trkpt>
      <trkpt lat="44.87267" lon="-0.6022">
        <ele>12.3</ele>
        <time>2022-02-02T12:35:51Z</time>
      </trkpt>
      <trkpt lat="44.87269" lon="-0.60207">
        <ele>12.1</ele>
        <time>2022-02-02T12:35:58Z</time>
      </trkpt>
      <trkpt lat="44.87271" lon="-0.60194">
        <ele>11.8</ele>
        <time>2022-02-02T12:36:05Z</time>
      </trkpt>
      <trkpt lat="44.87272" lon="-0.60181">
        <ele>11.5</ele>
        <time>2022-02-02T12:36:12Z</time>
      </trkpt>
      <trkpt lat="44.87271" lon="-0.60168">
        <ele>11.1</ele>
        <time>2022-02-02T12:36:20Z</time>
      </trkpt>
      <trkpt lat="44.87271" lon="-0.60155">
        <ele>10.8</ele>
        <time>2022-02-02T12:36:28Z</time>
      </trkpt>
      <trkpt lat="44.87271" lon="-0.60141">
        <ele>10.5</ele>
        <time>2022-02-02T12:36:35Z</time>
      </trkpt>
      <trkpt lat="44.87275" lon="-0.60128">
        <ele>10.3</ele>
        <time>2022-02-02T12:36:42Z</time>
      </trkpt>
      <trkpt lat="44.87276" lon="-0.60114">
        <ele>10</ele>
        <time>2022-02-02T12:36:50Z</time>
      </trkpt>
      <trkpt lat="44.87279" lon="-0.60102">
        <ele>9.8</ele>
        <time>2022-02-02T12:36:58Z</time>
      </trkpt>
      <trkpt lat="44.87282" lon="-0.6009">
        <ele>9.7</ele>
        <time>2022-02-02T12:37:05Z</time>
      </trkpt>
      <trkpt lat="44.87284" lon="-0.60076">
        <ele>9.6</ele>
        <time>2022-02-02T12:37:13Z</time>
      </trkpt>
      <trkpt lat="44.87286" lon="-0.60063">
        <ele>9.5</ele>
        <time>2022-02-02T12:37:21Z</time>
      </trkpt>
      <trkpt lat="44.87288" lon="-0.6005">
        <ele>9.6</ele>
        <time>2022-02-02T12:37:30Z</time>
      </trkpt>
      <trkpt lat="44.8729" lon="-0.60038">
        <ele>9.7</ele>
        <time>2022-02-02T12:37:37Z</time>
      </trkpt>
      <trkpt lat="44.87292" lon="-0.60024">
        <ele>9.9</ele>
        <time>2022-02-02T12:37:45Z</time>
      </trkpt>
      <trkpt lat="44.87294" lon="-0.60011">
        <ele>10.1</ele>
        <time>2022-02-02T12:37:53Z</time>
      </trkpt>
      <trkpt lat="44.87295" lon="-0.59998">
        <ele>10.3</ele>
        <time>2022-02-02T12:38:07Z</time>
      </trkpt>
      <trkpt lat="44.87297" lon="-0.59984">
        <ele>10.5</ele>
        <time>2022-02-02T12:38:22Z</time>
      </trkpt>
      <trkpt lat="44.87296" lon="-0.59971">
        <ele>10.5</ele>
        <time>2022-02-02T12:38:35Z</time>
      </trkpt>
      <trkpt lat="44.87293" lon="-0.59958">
        <ele>10.6</ele>
        <time>2022-02-02T12:38:42Z</time>
      </trkpt>
      <trkpt lat="44.8729" lon="-0.59944">
        <ele>10.6</ele>
        <time>2022-02-02T12:38:50Z</time>
      </trkpt>
      <trkpt lat="44.87289" lon="-0.59931">
        <ele>10.7</ele>
        <time>2022-02-02T12:38:58Z</time>
      </trkpt>
      <trkpt lat="44.87289" lon="-0.59918">
        <ele>10.7</ele>
        <time>2022-02-02T12:39:12Z</time>
      </trkpt>
      <trkpt lat="44.87286" lon="-0.59891">
        <ele>10.6</ele>
        <time>2022-02-02T12:39:31Z</time>
      </trkpt>
      <trkpt lat="44.87286" lon="-0.59877">
        <ele>10.5</ele>
        <time>2022-02-02T12:39:39Z</time>
      </trkpt>
      <trkpt lat="44.87283" lon="-0.59864">
        <ele>10.4</ele>
        <time>2022-02-02T12:39:45Z</time>
      </trkpt>
      <trkpt lat="44.87283" lon="-0.5985">
        <ele>10.1</ele>
        <time>2022-02-02T12:39:52Z</time>
      </trkpt>
      <trkpt lat="44.87281" lon="-0.59837">
        <ele>9.9</ele>
        <time>2022-02-02T12:39:59Z</time>
      </trkpt>
      <trkpt lat="44.87277" lon="-0.59825">
        <ele>9.7</ele>
        <time>2022-02-02T12:40:07Z</time>
      </trkpt>
      <trkpt lat="44.87274" lon="-0.59812">
        <ele>9.6</ele>
        <time>2022-02-02T12:40:15Z</time>
      </trkpt>
      <trkpt lat="44.87268" lon="-0.59801">
        <ele>9.5</ele>
        <time>2022-02-02T12:40:24Z</time>
      </trkpt>
      <trkpt lat="44.8727" lon="-0.59787">
        <ele>9.6</ele>
        <time>2022-02-02T12:40:32Z</time>
      </trkpt>
      <trkpt lat="44.87277" lon="-0.59779">
        <ele>9.8</ele>
        <time>2022-02-02T12:40:40Z</time>
      </trkpt>
      <trkpt lat="44.87286" lon="-0.59772">
        <ele>10.1</ele>
        <time>2022-02-02T12:40:48Z</time>
      </trkpt>
      <trkpt lat="44.87295" lon="-0.59769">
        <ele>10.4</ele>
        <time>2022-02-02T12:40:57Z</time>
      </trkpt>
      <trkpt lat="44.87304" lon="-0.59766">
        <ele>10.5</ele>
        <time>2022-02-02T12:41:05Z</time>
      </trkpt>
      <trkpt lat="44.87313" lon="-0.59763">
        <ele>10.7</ele>
        <time>2022-02-02T12:41:14Z</time>
      </trkpt>
      <trkpt lat="44.87321" lon="-0.59755">
        <ele>10.9</ele>
        <time>2022-02-02T12:41:20Z</time>
      </trkpt>
      <trkpt lat="44.87327" lon="-0.59744">
        <ele>11</ele>
        <time>2022-02-02T12:41:33Z</time>
      </trkpt>
      <trkpt lat="44.8733" lon="-0.59733">
        <ele>11.2</ele>
        <time>2022-02-02T12:41:47Z</time>
      </trkpt>
      <trkpt lat="44.87329" lon="-0.59722">
        <ele>12</ele>
        <time>2022-02-02T12:42:36Z</time>
      </trkpt>
      <trkpt lat="44.87329" lon="-0.59719">
        <ele>12</ele>
        <time>2022-02-02T12:42:43Z</time>
      </trkpt>
      <trkpt lat="44.87329" lon="-0.59719">
        <ele>12</ele>
        <time>2022-02-02T12:42:47Z</time>
      </trkpt>
      <trkpt lat="44.87333" lon="-0.59709">
        <ele>10.8</ele>
        <time>2022-02-02T12:43:01Z</time>
      </trkpt>
      <trkpt lat="44.87333" lon="-0.59707">
        <ele>10.6</ele>
        <time>2022-02-02T12:43:02Z</time>
      </trkpt>
      <trkpt lat="44.87334" lon="-0.59694">
        <ele>10.5</ele>
        <time>2022-02-02T12:43:10Z</time>
      </trkpt>
      <trkpt lat="44.87334" lon="-0.59681">
        <ele>10.4</ele>
        <time>2022-02-02T12:43:21Z</time>
      </trkpt>
      <trkpt lat="44.87335" lon="-0.59668">
        <ele>10.5</ele>
        <time>2022-02-02T12:43:30Z</time>
      </trkpt>
      <trkpt lat="44.87336" lon="-0.59655">
        <ele>10.5</ele>
        <time>2022-02-02T12:43:37Z</time>
      </trkpt>
      <trkpt lat="44.87338" lon="-0.59642">
        <ele>10.5</ele>
        <time>2022-02-02T12:43:47Z</time>
      </trkpt>
      <trkpt lat="44.87339" lon="-0.59628">
        <ele>10.5</ele>
        <time>2022-02-02T12:43:56Z</time>
      </trkpt>
      <trkpt lat="44.8734" lon="-0.59615">
        <ele>10.5</ele>
        <time>2022-02-02T12:44:05Z</time>
      </trkpt>
      <trkpt lat="44.87342" lon="-0.59602">
        <ele>10.4</ele>
        <time>2022-02-02T12:44:14Z</time>
      </trkpt>
      <trkpt lat="44.87342" lon="-0.59589">
        <ele>10.3</ele>
        <time>2022-02-02T12:44:22Z</time>
      </trkpt>
      <trkpt lat="44.87342" lon="-0.59575">
        <ele>10.1</ele>
        <time>2022-02-02T12:44:30Z</time>
      </trkpt>
      <trkpt lat="44.87343" lon="-0.59561">
        <ele>9.9</ele>
        <time>2022-02-02T12:44:39Z</time>
      </trkpt>
      <trkpt lat="44.87342" lon="-0.59547">
        <ele>9.6</ele>
        <time>2022-02-02T12:44:47Z</time>
      </trkpt>
      <trkpt lat="44.87343" lon="-0.59534">
        <ele>9.4</ele>
        <time>2022-02-02T12:44:54Z</time>
      </trkpt>
      <trkpt lat="44.87342" lon="-0.5952">
        <ele>9</ele>
        <time>2022-02-02T12:45:03Z</time>
      </trkpt>
      <trkpt lat="44.8734" lon="-0.59508">
        <ele>8.6</ele>
        <time>2022-02-02T12:45:10Z</time>
      </trkpt>
      <trkpt lat="44.87338" lon="-0.59495">
        <ele>8.4</ele>
        <time>2022-02-02T12:45:18Z</time>
      </trkpt>
      <trkpt lat="44.87338" lon="-0.59482">
        <ele>8.1</ele>
        <time>2022-02-02T12:45:27Z</time>
      </trkpt>
      <trkpt lat="44.87337" lon="-0.59468">
        <ele>7.8</ele>
        <time>2022-02-02T12:45:35Z</time>
      </trkpt>
      <trkpt lat="44.87335" lon="-0.59454">
        <ele>7.6</ele>
        <time>2022-02-02T12:45:44Z</time>
      </trkpt>
      <trkpt lat="44.87336" lon="-0.59441">
        <ele>7.5</ele>
        <time>2022-02-02T12:45:53Z</time>
      </trkpt>
      <trkpt lat="44.87334" lon="-0.59427">
        <ele>7.6</ele>
        <time>2022-02-02T12:46:01Z</time>
      </trkpt>
      <trkpt lat="44.8733" lon="-0.59415">
        <ele>7.7</ele>
        <time>2022-02-02T12:46:06Z</time>
      </trkpt>
      <trkpt lat="44.87325" lon="-0.59403">
        <ele>7.8</ele>
        <time>2022-02-02T12:46:13Z</time>
      </trkpt>
      <trkpt lat="44.87322" lon="-0.5939">
        <ele>7.9</ele>
        <time>2022-02-02T12:46:22Z</time>
      </trkpt>
      <trkpt lat="44.87323" lon="-0.59375">
        <ele>8</ele>
        <time>2022-02-02T12:46:31Z</time>
      </trkpt>
      <trkpt lat="44.87321" lon="-0.59361">
        <ele>8.1</ele>
        <time>2022-02-02T12:46:40Z</time>
      </trkpt>
      <trkpt lat="44.8732" lon="-0.59347">
        <ele>8.1</ele>
        <time>2022-02-02T12:46:51Z</time>
      </trkpt>
      <trkpt lat="44.87321" lon="-0.59341">
        <ele>8.2</ele>
        <time>2022-02-02T12:47:01Z</time>
      </trkpt>
      <trkpt lat="44.8733" lon="-0.59342">
        <ele>8</ele>
        <time>2022-02-02T12:47:36Z</time>
      </trkpt>
      <trkpt lat="44.87333" lon="-0.59338">
        <ele>8</ele>
        <time>2022-02-02T12:47:47Z</time>
      </trkpt>
      <trkpt lat="44.87325" lon="-0.59337">
        <ele>8.7</ele>
        <time>2022-02-02T12:48:35Z</time>
      </trkpt>
      <trkpt lat="44.87322" lon="-0.59329">
        <ele>8.7</ele>
        <time>2022-02-02T12:48:40Z</time>
      </trkpt>
      <trkpt lat="44.87318" lon="-0.59318">
        <ele>8.6</ele>
        <time>2022-02-02T12:48:50Z</time>
      </trkpt>
      <trkpt lat="44.87315" lon="-0.59304">
        <ele>8.6</ele>
        <time>2022-02-02T12:48:59Z</time>
      </trkpt>
      <trkpt lat="44.87312" lon="-0.59292">
        <ele>8.4</ele>
        <time>2022-02-02T12:49:07Z</time>
      </trkpt>
      <trkpt lat="44.87309" lon="-0.5928">
        <ele>8.3</ele>
        <time>2022-02-02T12:49:16Z</time>
      </trkpt>
      <trkpt lat="44.87305" lon="-0.59267">
        <ele>8.2</ele>
        <time>2022-02-02T12:49:24Z</time>
      </trkpt>
      <trkpt lat="44.873" lon="-0.59256">
        <ele>8</ele>
        <time>2022-02-02T12:49:32Z</time>
      </trkpt>
      <trkpt lat="44.87295" lon="-0.59245">
        <ele>7.7</ele>
        <time>2022-02-02T12:49:41Z</time>
      </trkpt>
      <trkpt lat="44.8729" lon="-0.59233">
        <ele>7.5</ele>
        <time>2022-02-02T12:49:49Z</time>
      </trkpt>
      <trkpt lat="44.87284" lon="-0.59223">
        <ele>7.4</ele>
        <time>2022-02-02T12:49:57Z</time>
      </trkpt>
      <trkpt lat="44.87279" lon="-0.59212">
        <ele>7.2</ele>
        <time>2022-02-02T12:50:07Z</time>
      </trkpt>
      <trkpt lat="44.87273" lon="-0.59202">
        <ele>7</ele>
        <time>2022-02-02T12:50:15Z</time>
      </trkpt>
      <trkpt lat="44.87267" lon="-0.59192">
        <ele>6.9</ele>
        <time>2022-02-02T12:50:24Z</time>
      </trkpt>
      <trkpt lat="44.87263" lon="-0.59181">
        <ele>6.8</ele>
        <time>2022-02-02T12:50:32Z</time>
      </trkpt>
      <trkpt lat="44.87257" lon="-0.5917">
        <ele>6.8</ele>
        <time>2022-02-02T12:50:40Z</time>
      </trkpt>
      <trkpt lat="44.87252" lon="-0.5916">
        <ele>6.8</ele>
        <time>2022-02-02T12:50:47Z</time>
      </trkpt>
      <trkpt lat="44.87246" lon="-0.59149">
        <ele>6.8</ele>
        <time>2022-02-02T12:50:55Z</time>
      </trkpt>
      <trkpt lat="44.87242" lon="-0.59137">
        <ele>6.9</ele>
        <time>2022-02-02T12:51:04Z</time>
      </trkpt>
      <trkpt lat="44.87242" lon="-0.59137">
        <ele>7</ele>
        <time>2022-02-02T12:51:11Z</time>
      </trkpt>
      <trkpt lat="44.87244" lon="-0.59126">
        <ele>7</ele>
        <time>2022-02-02T12:51:28Z</time>
      </trkpt>
      <trkpt lat="44.87247" lon="-0.59125">
        <ele>7</ele>
        <time>2022-02-02T12:51:31Z</time>
      </trkpt>
      <trkpt lat="44.87255" lon="-0.59117">
        <ele>7</ele>
        <time>2022-02-02T12:51:41Z</time>
      </trkpt>
      <trkpt lat="44.87257" lon="-0.59104">
        <ele>7</ele>
        <time>2022-02-02T12:51:52Z</time>
      </trkpt>
      <trkpt lat="44.87251" lon="-0.59095">
        <ele>7</ele>
        <time>2022-02-02T12:52:03Z</time>
      </trkpt>
      <trkpt lat="44.87249" lon="-0.59082">
        <ele>7</ele>
        <time>2022-02-02T12:52:15Z</time>
      </trkpt>
      <trkpt lat="44.87249" lon="-0.59068">
        <ele>7</ele>
        <time>2022-02-02T12:52:24Z</time>
      </trkpt>
      <trkpt lat="44.87248" lon="-0.59055">
        <ele>7</ele>
        <time>2022-02-02T12:52:34Z</time>
      </trkpt>
      <trkpt lat="44.87246" lon="-0.59042">
        <ele>7</ele>
        <time>2022-02-02T12:52:42Z</time>
      </trkpt>
      <trkpt lat="44.87244" lon="-0.59028">
        <ele>7.1</ele>
        <time>2022-02-02T12:52:51Z</time>
      </trkpt>
      <trkpt lat="44.87242" lon="-0.59015">
        <ele>7.2</ele>
        <time>2022-02-02T12:53:01Z</time>
      </trkpt>
      <trkpt lat="44.87239" lon="-0.59001">
        <ele>7.3</ele>
        <time>2022-02-02T12:53:10Z</time>
      </trkpt>
      <trkpt lat="44.87236" lon="-0.58989">
        <ele>7.3</ele>
        <time>2022-02-02T12:53:17Z</time>
      </trkpt>
      <trkpt lat="44.87234" lon="-0.58976">
        <ele>7.2</ele>
        <time>2022-02-02T12:53:26Z</time>
      </trkpt>
      <trkpt lat="44.87232" lon="-0.58962">
        <ele>7</ele>
        <time>2022-02-02T12:53:35Z</time>
      </trkpt>
      <trkpt lat="44.87228" lon="-0.58949">
        <ele>6.8</ele>
        <time>2022-02-02T12:53:45Z</time>
      </trkpt>
      <trkpt lat="44.87224" lon="-0.58937">
        <ele>6.5</ele>
        <time>2022-02-02T12:53:53Z</time>
      </trkpt>
      <trkpt lat="44.87221" lon="-0.58925">
        <ele>6.2</ele>
        <time>2022-02-02T12:54:00Z</time>
      </trkpt>
      <trkpt lat="44.87215" lon="-0.58915">
        <ele>5.8</ele>
        <time>2022-02-02T12:54:06Z</time>
      </trkpt>
      <trkpt lat="44.87211" lon="-0.58904">
        <ele>5.4</ele>
        <time>2022-02-02T12:54:14Z</time>
      </trkpt>
      <trkpt lat="44.8721" lon="-0.58891">
        <ele>4.8</ele>
        <time>2022-02-02T12:54:22Z</time>
      </trkpt>
      <trkpt lat="44.87208" lon="-0.58878">
        <ele>4.3</ele>
        <time>2022-02-02T12:54:30Z</time>
      </trkpt>
      <trkpt lat="44.87207" lon="-0.58863">
        <ele>3.7</ele>
        <time>2022-02-02T12:54:38Z</time>
      </trkpt>
      <trkpt lat="44.87205" lon="-0.5885">
        <ele>3.2</ele>
        <time>2022-02-02T12:54:46Z</time>
      </trkpt>
      <trkpt lat="44.87205" lon="-0.58837">
        <ele>2.7</ele>
        <time>2022-02-02T12:54:54Z</time>
      </trkpt>
      <trkpt lat="44.87204" lon="-0.58824">
        <ele>2.3</ele>
        <time>2022-02-02T12:55:03Z</time>
      </trkpt>
      <trkpt lat="44.87203" lon="-0.58811">
        <ele>1.7</ele>
        <time>2022-02-02T12:55:11Z</time>
      </trkpt>
      <trkpt lat="44.872" lon="-0.58798">
        <ele>1.3</ele>
        <time>2022-02-02T12:55:19Z</time>
      </trkpt>
      <trkpt lat="44.87198" lon="-0.58784">
        <ele>0.9</ele>
        <time>2022-02-02T12:55:27Z</time>
      </trkpt>
      <trkpt lat="44.87198" lon="-0.5877">
        <ele>0.5</ele>
        <time>2022-02-02T12:55:35Z</time>
      </trkpt>
      <trkpt lat="44.87196" lon="-0.58758">
        <ele>0.2</ele>
        <time>2022-02-02T12:55:43Z</time>
      </trkpt>
      <trkpt lat="44.87195" lon="-0.58743">
        <ele>-0.2</ele>
        <time>2022-02-02T12:55:50Z</time>
      </trkpt>
      <trkpt lat="44.87199" lon="-0.5873">
        <ele>-0.5</ele>
        <time>2022-02-02T12:55:58Z</time>
      </trkpt>
      <trkpt lat="44.87208" lon="-0.58727">
        <ele>-0.9</ele>
        <time>2022-02-02T12:56:09Z</time>
      </trkpt>
      <trkpt lat="44.87218" lon="-0.58727">
        <ele>-1.1</ele>
        <time>2022-02-02T12:56:16Z</time>
      </trkpt>
      <trkpt lat="44.87227" lon="-0.58724">
        <ele>-1.2</ele>
        <time>2022-02-02T12:56:24Z</time>
      </trkpt>
      <trkpt lat="44.87236" lon="-0.58722">
        <ele>-1.2</ele>
        <time>2022-02-02T12:56:31Z</time>
      </trkpt>
      <trkpt lat="44.87246" lon="-0.5872">
        <ele>-1.1</ele>
        <time>2022-02-02T12:56:38Z</time>
      </trkpt>
      <trkpt lat="44.87255" lon="-0.58717">
        <ele>-0.9</ele>
        <time>2022-02-02T12:56:47Z</time>
      </trkpt>
      <trkpt lat="44.87265" lon="-0.58717">
        <ele>-0.7</ele>
        <time>2022-02-02T12:56:54Z</time>
      </trkpt>
      <trkpt lat="44.87274" lon="-0.58717">
        <ele>-0.5</ele>
        <time>2022-02-02T12:57:03Z</time>
      </trkpt>
      <trkpt lat="44.87283" lon="-0.58715">
        <ele>-0.1</ele>
        <time>2022-02-02T12:57:11Z</time>
      </trkpt>
      <trkpt lat="44.87293" lon="-0.58712">
        <ele>0.3</ele>
        <time>2022-02-02T12:57:19Z</time>
      </trkpt>
      <trkpt lat="44.87302" lon="-0.58708">
        <ele>0.6</ele>
        <time>2022-02-02T12:57:26Z</time>
      </trkpt>
      <trkpt lat="44.87311" lon="-0.58706">
        <ele>1</ele>
        <time>2022-02-02T12:57:34Z</time>
      </trkpt>
      <trkpt lat="44.87319" lon="-0.58712">
        <ele>1.3</ele>
        <time>2022-02-02T12:57:44Z</time>
      </trkpt>
      <trkpt lat="44.87336" lon="-0.5871">
        <ele>1.5</ele>
        <time>2022-02-02T12:58:11Z</time>
      </trkpt>
      <trkpt lat="44.87334" lon="-0.58697">
        <ele>1.6</ele>
        <time>2022-02-02T12:58:19Z</time>
      </trkpt>
      <trkpt lat="44.87331" lon="-0.58685">
        <ele>1.8</ele>
        <time>2022-02-02T12:58:26Z</time>
      </trkpt>
      <trkpt lat="44.87331" lon="-0.58672">
        <ele>1.9</ele>
        <time>2022-02-02T12:58:32Z</time>
      </trkpt>
      <trkpt lat="44.87331" lon="-0.58659">
        <ele>1.9</ele>
        <time>2022-02-02T12:58:38Z</time>
      </trkpt>
      <trkpt lat="44.87337" lon="-0.58648">
        <ele>1.8</ele>
        <time>2022-02-02T12:58:49Z</time>
      </trkpt>
      <trkpt lat="44.87347" lon="-0.5865">
        <ele>1.7</ele>
        <time>2022-02-02T12:58:58Z</time>
      </trkpt>
      <trkpt lat="44.87356" lon="-0.58655">
        <ele>1.6</ele>
        <time>2022-02-02T12:59:03Z</time>
      </trkpt>
      <trkpt lat="44.87365" lon="-0.5866">
        <ele>1.5</ele>
        <time>2022-02-02T12:59:09Z</time>
      </trkpt>
      <trkpt lat="44.87375" lon="-0.58659">
        <ele>1.5</ele>
        <time>2022-02-02T12:59:15Z</time>
      </trkpt>
      <trkpt lat="44.87385" lon="-0.58658">
        <ele>1.4</ele>
        <time>2022-02-02T12:59:23Z</time>
      </trkpt>
      <trkpt lat="44.87395" lon="-0.5866">
        <ele>1.3</ele>
        <time>2022-02-02T12:59:32Z</time>
      </trkpt>
      <trkpt lat="44.87404" lon="-0.58659">
        <ele>1.2</ele>
        <time>2022-02-02T12:59:42Z</time>
      </trkpt>
      <trkpt lat="44.87413" lon="-0.5866">
        <ele>1.2</ele>
        <time>2022-02-02T12:59:51Z</time>
      </trkpt>
      <trkpt lat="44.87422" lon="-0.58662">
        <ele>1.2</ele>
        <time>2022-02-02T13:00:00Z</time>
      </trkpt>
      <trkpt lat="44.87432" lon="-0.58663">
        <ele>1.4</ele>
        <time>2022-02-02T13:00:08Z</time>
      </trkpt>
      <trkpt lat="44.87441" lon="-0.58665">
        <ele>1.5</ele>
        <time>2022-02-02T13:00:15Z</time>
      </trkpt>
      <trkpt lat="44.8745" lon="-0.58665">
        <ele>1.5</ele>
        <time>2022-02-02T13:00:22Z</time>
      </trkpt>
      <trkpt lat="44.87461" lon="-0.58668">
        <ele>1.5</ele>
        <time>2022-02-02T13:00:30Z</time>
      </trkpt>
      <trkpt lat="44.87469" lon="-0.58663">
        <ele>1.5</ele>
        <time>2022-02-02T13:00:39Z</time>
      </trkpt>
      <trkpt lat="44.8747" lon="-0.5865">
        <ele>1.5</ele>
        <time>2022-02-02T13:00:47Z</time>
      </trkpt>
      <trkpt lat="44.87481" lon="-0.58647">
        <ele>1.5</ele>
        <time>2022-02-02T13:00:57Z</time>
      </trkpt>
      <trkpt lat="44.87491" lon="-0.58645">
        <ele>1.4</ele>
        <time>2022-02-02T13:01:05Z</time>
      </trkpt>
      <trkpt lat="44.87499" lon="-0.58642">
        <ele>1.2</ele>
        <time>2022-02-02T13:01:13Z</time>
      </trkpt>
      <trkpt lat="44.87509" lon="-0.58639">
        <ele>1</ele>
        <time>2022-02-02T13:01:22Z</time>
      </trkpt>
      <trkpt lat="44.8751" lon="-0.58626">
        <ele>0.9</ele>
        <time>2022-02-02T13:01:32Z</time>
      </trkpt>
      <trkpt lat="44.87513" lon="-0.58613">
        <ele>0.8</ele>
        <time>2022-02-02T13:01:41Z</time>
      </trkpt>
      <trkpt lat="44.87515" lon="-0.58601">
        <ele>0.9</ele>
        <time>2022-02-02T13:01:50Z</time>
      </trkpt>
      <trkpt lat="44.87515" lon="-0.58587">
        <ele>1</ele>
        <time>2022-02-02T13:02:00Z</time>
      </trkpt>
      <trkpt lat="44.87505" lon="-0.58583">
        <ele>1.1</ele>
        <time>2022-02-02T13:02:06Z</time>
      </trkpt>
      <trkpt lat="44.87496" lon="-0.5858">
        <ele>1.1</ele>
        <time>2022-02-02T13:02:15Z</time>
      </trkpt>
      <trkpt lat="44.87485" lon="-0.58577">
        <ele>1</ele>
        <time>2022-02-02T13:02:23Z</time>
      </trkpt>
      <trkpt lat="44.87479" lon="-0.58567">
        <ele>1</ele>
        <time>2022-02-02T13:02:33Z</time>
      </trkpt>
      <trkpt lat="44.87475" lon="-0.58555">
        <ele>1</ele>
        <time>2022-02-02T13:02:42Z</time>
      </trkpt>
      <trkpt lat="44.87475" lon="-0.58542">
        <ele>1.2</ele>
        <time>2022-02-02T13:02:52Z</time>
      </trkpt>
      <trkpt lat="44.87475" lon="-0.58528">
        <ele>1.4</ele>
        <time>2022-02-02T13:03:00Z</time>
      </trkpt>
      <trkpt lat="44.87474" lon="-0.58515">
        <ele>1.5</ele>
        <time>2022-02-02T13:03:06Z</time>
      </trkpt>
      <trkpt lat="44.87478" lon="-0.58502">
        <ele>1.4</ele>
        <time>2022-02-02T13:03:14Z</time>
      </trkpt>
      <trkpt lat="44.87481" lon="-0.58489">
        <ele>1.1</ele>
        <time>2022-02-02T13:03:22Z</time>
      </trkpt>
      <trkpt lat="44.87482" lon="-0.58476">
        <ele>0.6</ele>
        <time>2022-02-02T13:03:31Z</time>
      </trkpt>
      <trkpt lat="44.87482" lon="-0.58462">
        <ele>0.1</ele>
        <time>2022-02-02T13:03:39Z</time>
      </trkpt>
      <trkpt lat="44.87483" lon="-0.58449">
        <ele>-0.3</ele>
        <time>2022-02-02T13:03:47Z</time>
      </trkpt>
      <trkpt lat="44.87484" lon="-0.58435">
        <ele>-0.4</ele>
        <time>2022-02-02T13:03:55Z</time>
      </trkpt>
      <trkpt lat="44.87484" lon="-0.58421">
        <ele>-0.3</ele>
        <time>2022-02-02T13:04:04Z</time>
      </trkpt>
      <trkpt lat="44.87485" lon="-0.58406">
        <ele>1.4</ele>
        <time>2022-02-02T13:04:12Z</time>
      </trkpt>
      <trkpt lat="44.87485" lon="-0.58393">
        <ele>0.3</ele>
        <time>2022-02-02T13:04:19Z</time>
      </trkpt>
      <trkpt lat="44.87486" lon="-0.5838">
        <ele>0.5</ele>
        <time>2022-02-02T13:04:28Z</time>
      </trkpt>
      <trkpt lat="44.87486" lon="-0.58367">
        <ele>0.6</ele>
        <time>2022-02-02T13:04:36Z</time>
      </trkpt>
      <trkpt lat="44.87487" lon="-0.58354">
        <ele>0.9</ele>
        <time>2022-02-02T13:04:45Z</time>
      </trkpt>
      <trkpt lat="44.87489" lon="-0.5834">
        <ele>1.3</ele>
        <time>2022-02-02T13:04:53Z</time>
      </trkpt>
      <trkpt lat="44.87488" lon="-0.58327">
        <ele>1.8</ele>
        <time>2022-02-02T13:05:06Z</time>
      </trkpt>
      <trkpt lat="44.87496" lon="-0.58318">
        <ele>2.6</ele>
        <time>2022-02-02T13:05:13Z</time>
      </trkpt>
      <trkpt lat="44.87506" lon="-0.58314">
        <ele>3.4</ele>
        <time>2022-02-02T13:05:19Z</time>
      </trkpt>
      <trkpt lat="44.87515" lon="-0.5831">
        <ele>4</ele>
        <time>2022-02-02T13:05:27Z</time>
      </trkpt>
      <trkpt lat="44.87525" lon="-0.5831">
        <ele>4.5</ele>
        <time>2022-02-02T13:05:34Z</time>
      </trkpt>
      <trkpt lat="44.87535" lon="-0.58312">
        <ele>4.8</ele>
        <time>2022-02-02T13:05:44Z</time>
      </trkpt>
      <trkpt lat="44.87544" lon="-0.58311">
        <ele>5</ele>
        <time>2022-02-02T13:05:52Z</time>
      </trkpt>
      <trkpt lat="44.87554" lon="-0.58312">
        <ele>5.2</ele>
        <time>2022-02-02T13:06:01Z</time>
      </trkpt>
      <trkpt lat="44.87563" lon="-0.58312">
        <ele>5.3</ele>
        <time>2022-02-02T13:06:10Z</time>
      </trkpt>
      <trkpt lat="44.87574" lon="-0.58314">
        <ele>5.3</ele>
        <time>2022-02-02T13:06:17Z</time>
      </trkpt>
      <trkpt lat="44.87583" lon="-0.58315">
        <ele>5.3</ele>
        <time>2022-02-02T13:06:25Z</time>
      </trkpt>
      <trkpt lat="44.87592" lon="-0.58316">
        <ele>5.2</ele>
        <time>2022-02-02T13:06:32Z</time>
      </trkpt>
      <trkpt lat="44.87602" lon="-0.58317">
        <ele>4.8</ele>
        <time>2022-02-02T13:06:38Z</time>
      </trkpt>
      <trkpt lat="44.87611" lon="-0.58316">
        <ele>4.4</ele>
        <time>2022-02-02T13:06:47Z</time>
      </trkpt>
      <trkpt lat="44.87619" lon="-0.58322">
        <ele>3.6</ele>
        <time>2022-02-02T13:06:56Z</time>
      </trkpt>
      <trkpt lat="44.87628" lon="-0.58319">
        <ele>2.8</ele>
        <time>2022-02-02T13:07:03Z</time>
      </trkpt>
      <trkpt lat="44.87638" lon="-0.58317">
        <ele>1.9</ele>
        <time>2022-02-02T13:07:13Z</time>
      </trkpt>
      <trkpt lat="44.87647" lon="-0.5832">
        <ele>1.1</ele>
        <time>2022-02-02T13:07:21Z</time>
      </trkpt>
      <trkpt lat="44.87656" lon="-0.58325">
        <ele>0.3</ele>
        <time>2022-02-02T13:07:28Z</time>
      </trkpt>
      <trkpt lat="44.87663" lon="-0.58334">
        <ele>-0.4</ele>
        <time>2022-02-02T13:07:36Z</time>
      </trkpt>
      <trkpt lat="44.87671" lon="-0.58339">
        <ele>-0.9</ele>
        <time>2022-02-02T13:07:45Z</time>
      </trkpt>
      <trkpt lat="44.87679" lon="-0.58347">
        <ele>-1.4</ele>
        <time>2022-02-02T13:07:54Z</time>
      </trkpt>
      <trkpt lat="44.87687" lon="-0.58353">
        <ele>-1.6</ele>
        <time>2022-02-02T13:08:02Z</time>
      </trkpt>
      <trkpt lat="44.87695" lon="-0.58361">
        <ele>-1.6</ele>
        <time>2022-02-02T13:08:09Z</time>
      </trkpt>
      <trkpt lat="44.87704" lon="-0.58365">
        <ele>-1.5</ele>
        <time>2022-02-02T13:08:18Z</time>
      </trkpt>
      <trkpt lat="44.87712" lon="-0.58371">
        <ele>-1.3</ele>
        <time>2022-02-02T13:08:26Z</time>
      </trkpt>
      <trkpt lat="44.87721" lon="-0.58377">
        <ele>-0.9</ele>
        <time>2022-02-02T13:08:35Z</time>
      </trkpt>
      <trkpt lat="44.87729" lon="-0.58385">
        <ele>-0.5</ele>
        <time>2022-02-02T13:08:43Z</time>
      </trkpt>
      <trkpt lat="44.87738" lon="-0.58391">
        <ele>-0.3</ele>
        <time>2022-02-02T13:08:53Z</time>
      </trkpt>
      <trkpt lat="44.87746" lon="-0.58396">
        <ele>2</ele>
        <time>2022-02-02T13:09:03Z</time>
      </trkpt>
      <trkpt lat="44.87753" lon="-0.58405">
        <ele>0.2</ele>
        <time>2022-02-02T13:09:12Z</time>
      </trkpt>
      <trkpt lat="44.87757" lon="-0.58417">
        <ele>0.3</ele>
        <time>2022-02-02T13:09:21Z</time>
      </trkpt>
      <trkpt lat="44.8776" lon="-0.5843">
        <ele>0.3</ele>
        <time>2022-02-02T13:09:30Z</time>
      </trkpt>
      <trkpt lat="44.87762" lon="-0.58443">
        <ele>0.2</ele>
        <time>2022-02-02T13:09:37Z</time>
      </trkpt>
      <trkpt lat="44.87766" lon="-0.58454">
        <ele>-0.1</ele>
        <time>2022-02-02T13:09:44Z</time>
      </trkpt>
      <trkpt lat="44.87776" lon="-0.58458">
        <ele>-0.4</ele>
        <time>2022-02-02T13:09:54Z</time>
      </trkpt>
      <trkpt lat="44.87785" lon="-0.58456">
        <ele>-0.7</ele>
        <time>2022-02-02T13:10:06Z</time>
      </trkpt>
      <trkpt lat="44.87795" lon="-0.58454">
        <ele>-1.1</ele>
        <time>2022-02-02T13:10:14Z</time>
      </trkpt>
      <trkpt lat="44.87804" lon="-0.58455">
        <ele>-1.4</ele>
        <time>2022-02-02T13:10:23Z</time>
      </trkpt>
      <trkpt lat="44.87813" lon="-0.58456">
        <ele>-1.5</ele>
        <time>2022-02-02T13:10:30Z</time>
      </trkpt>
      <trkpt lat="44.87822" lon="-0.58456">
        <ele>-1.7</ele>
        <time>2022-02-02T13:10:37Z</time>
      </trkpt>
      <trkpt lat="44.87832" lon="-0.58456">
        <ele>-1.9</ele>
        <time>2022-02-02T13:10:48Z</time>
      </trkpt>
      <trkpt lat="44.87842" lon="-0.58459">
        <ele>-2</ele>
        <time>2022-02-02T13:10:58Z</time>
      </trkpt>
      <trkpt lat="44.87852" lon="-0.5846">
        <ele>-2.1</ele>
        <time>2022-02-02T13:11:08Z</time>
      </trkpt>
      <trkpt lat="44.87861" lon="-0.58462">
        <ele>-2.1</ele>
        <time>2022-02-02T13:11:18Z</time>
      </trkpt>
      <trkpt lat="44.87865" lon="-0.58475">
        <ele>-1.9</ele>
        <time>2022-02-02T13:11:28Z</time>
      </trkpt>
      <trkpt lat="44.87874" lon="-0.5847">
        <ele>-1.7</ele>
        <time>2022-02-02T13:11:39Z</time>
      </trkpt>
      <trkpt lat="44.87884" lon="-0.58467">
        <ele>-1.4</ele>
        <time>2022-02-02T13:11:46Z</time>
      </trkpt>
      <trkpt lat="44.87893" lon="-0.5847">
        <ele>-1</ele>
        <time>2022-02-02T13:11:52Z</time>
      </trkpt>
      <trkpt lat="44.87902" lon="-0.58467">
        <ele>-0.7</ele>
        <time>2022-02-02T13:11:59Z</time>
      </trkpt>
      <trkpt lat="44.8791" lon="-0.58475">
        <ele>-0.5</ele>
        <time>2022-02-02T13:12:09Z</time>
      </trkpt>
      <trkpt lat="44.87919" lon="-0.58481">
        <ele>-0.5</ele>
        <time>2022-02-02T13:12:16Z</time>
      </trkpt>
      <trkpt lat="44.87926" lon="-0.58489">
        <ele>-0.5</ele>
        <time>2022-02-02T13:12:26Z</time>
      </trkpt>
      <trkpt lat="44.87936" lon="-0.58495">
        <ele>-0.5</ele>
        <time>2022-02-02T13:12:35Z</time>
      </trkpt>
      <trkpt lat="44.87944" lon="-0.58502">
        <ele>-0.5</ele>
        <time>2022-02-02T13:12:44Z</time>
      </trkpt>
      <trkpt lat="44.87952" lon="-0.58508">
        <ele>-0.7</ele>
        <time>2022-02-02T13:12:53Z</time>
      </trkpt>
      <trkpt lat="44.87961" lon="-0.58514">
        <ele>-1</ele>
        <time>2022-02-02T13:13:03Z</time>
      </trkpt>
      <trkpt lat="44.8797" lon="-0.5852">
        <ele>-1.3</ele>
        <time>2022-02-02T13:13:11Z</time>
      </trkpt>
      <trkpt lat="44.87978" lon="-0.58529">
        <ele>-1.5</ele>
        <time>2022-02-02T13:13:21Z</time>
      </trkpt>
      <trkpt lat="44.87986" lon="-0.58537">
        <ele>-1.7</ele>
        <time>2022-02-02T13:13:29Z</time>
      </trkpt>
      <trkpt lat="44.87994" lon="-0.58543">
        <ele>-1.9</ele>
        <time>2022-02-02T13:13:38Z</time>
      </trkpt>
      <trkpt lat="44.88002" lon="-0.5855">
        <ele>-1.9</ele>
        <time>2022-02-02T13:13:47Z</time>
      </trkpt>
      <trkpt lat="44.88011" lon="-0.58557">
        <ele>-1.7</ele>
        <time>2022-02-02T13:13:55Z</time>
      </trkpt>
      <trkpt lat="44.88019" lon="-0.58562">
        <ele>-1.5</ele>
        <time>2022-02-02T13:14:04Z</time>
      </trkpt>
      <trkpt lat="44.88028" lon="-0.58569">
        <ele>-1.4</ele>
        <time>2022-02-02T13:14:11Z</time>
      </trkpt>
      <trkpt lat="44.88036" lon="-0.58575">
        <ele>-1.2</ele>
        <time>2022-02-02T13:14:20Z</time>
      </trkpt>
      <trkpt lat="44.88045" lon="-0.5858">
        <ele>-1</ele>
        <time>2022-02-02T13:14:30Z</time>
      </trkpt>
      <trkpt lat="44.88052" lon="-0.58571">
        <ele>-0.7</ele>
        <time>2022-02-02T13:14:44Z</time>
      </trkpt>
      <trkpt lat="44.88054" lon="-0.58563">
        <ele>-0.3</ele>
        <time>2022-02-02T13:14:58Z</time>
      </trkpt>
      <trkpt lat="44.88063" lon="-0.5856">
        <ele>1</ele>
        <time>2022-02-02T13:15:09Z</time>
      </trkpt>
      <trkpt lat="44.88067" lon="-0.58556">
        <ele>0.9</ele>
        <time>2022-02-02T13:15:13Z</time>
      </trkpt>
      <trkpt lat="44.88077" lon="-0.5856">
        <ele>0.8</ele>
        <time>2022-02-02T13:15:26Z</time>
      </trkpt>
      <trkpt lat="44.88087" lon="-0.58563">
        <ele>0.6</ele>
        <time>2022-02-02T13:15:33Z</time>
      </trkpt>
      <trkpt lat="44.88096" lon="-0.58566">
        <ele>0.4</ele>
        <time>2022-02-02T13:15:41Z</time>
      </trkpt>
      <trkpt lat="44.88105" lon="-0.58571">
        <ele>0.2</ele>
        <time>2022-02-02T13:15:49Z</time>
      </trkpt>
      <trkpt lat="44.88114" lon="-0.58576">
        <ele>-0.1</ele>
        <time>2022-02-02T13:15:57Z</time>
      </trkpt>
      <trkpt lat="44.88123" lon="-0.58582">
        <ele>-0.4</ele>
        <time>2022-02-02T13:16:07Z</time>
      </trkpt>
      <trkpt lat="44.88131" lon="-0.58589">
        <ele>-0.6</ele>
        <time>2022-02-02T13:16:14Z</time>
      </trkpt>
      <trkpt lat="44.8814" lon="-0.58594">
        <ele>-0.9</ele>
        <time>2022-02-02T13:16:23Z</time>
      </trkpt>
      <trkpt lat="44.88148" lon="-0.58601">
        <ele>-1.2</ele>
        <time>2022-02-02T13:16:32Z</time>
      </trkpt>
      <trkpt lat="44.88156" lon="-0.58605">
        <ele>-1.5</ele>
        <time>2022-02-02T13:16:41Z</time>
      </trkpt>
      <trkpt lat="44.88166" lon="-0.5861">
        <ele>-1.6</ele>
        <time>2022-02-02T13:16:48Z</time>
      </trkpt>
      <trkpt lat="44.88175" lon="-0.58617">
        <ele>-1.7</ele>
        <time>2022-02-02T13:16:57Z</time>
      </trkpt>
      <trkpt lat="44.88184" lon="-0.5862">
        <ele>-1.7</ele>
        <time>2022-02-02T13:17:06Z</time>
      </trkpt>
      <trkpt lat="44.88192" lon="-0.58627">
        <ele>-1.6</ele>
        <time>2022-02-02T13:17:15Z</time>
      </trkpt>
      <trkpt lat="44.88201" lon="-0.58631">
        <ele>-1.4</ele>
        <time>2022-02-02T13:17:24Z</time>
      </trkpt>
      <trkpt lat="44.88209" lon="-0.58635">
        <ele>-1.1</ele>
        <time>2022-02-02T13:17:31Z</time>
      </trkpt>
      <trkpt lat="44.88219" lon="-0.58642">
        <ele>-0.8</ele>
        <time>2022-02-02T13:17:40Z</time>
      </trkpt>
      <trkpt lat="44.88228" lon="-0.58645">
        <ele>-0.6</ele>
        <time>2022-02-02T13:17:48Z</time>
      </trkpt>
      <trkpt lat="44.88238" lon="-0.58652">
        <ele>-0.5</ele>
        <time>2022-02-02T13:17:55Z</time>
      </trkpt>
      <trkpt lat="44.88246" lon="-0.58658">
        <ele>-0.2</ele>
        <time>2022-02-02T13:18:06Z</time>
      </trkpt>
      <trkpt lat="44.88255" lon="-0.5866">
        <ele>0.1</ele>
        <time>2022-02-02T13:18:14Z</time>
      </trkpt>
      <trkpt lat="44.88264" lon="-0.58664">
        <ele>0.4</ele>
        <time>2022-02-02T13:18:24Z</time>
      </trkpt>
      <trkpt lat="44.88274" lon="-0.58668">
        <ele>0.5</ele>
        <time>2022-02-02T13:18:31Z</time>
      </trkpt>
      <trkpt lat="44.88283" lon="-0.58667">
        <ele>0.7</ele>
        <time>2022-02-02T13:18:38Z</time>
      </trkpt>
      <trkpt lat="44.88289" lon="-0.58656">
        <ele>0.9</ele>
        <time>2022-02-02T13:18:48Z</time>
      </trkpt>
      <trkpt lat="44.88306" lon="-0.58663">
        <ele>1</ele>
        <time>2022-02-02T13:19:18Z</time>
      </trkpt>
      <trkpt lat="44.88315" lon="-0.58667">
        <ele>1.1</ele>
        <time>2022-02-02T13:19:25Z</time>
      </trkpt>
      <trkpt lat="44.88323" lon="-0.58673">
        <ele>1.2</ele>
        <time>2022-02-02T13:19:33Z</time>
      </trkpt>
      <trkpt lat="44.88333" lon="-0.58675">
        <ele>1.5</ele>
        <time>2022-02-02T13:19:42Z</time>
      </trkpt>
      <trkpt lat="44.88342" lon="-0.58678">
        <ele>1.7</ele>
        <time>2022-02-02T13:19:53Z</time>
      </trkpt>
      <trkpt lat="44.88351" lon="-0.58682">
        <ele>1.9</ele>
        <time>2022-02-02T13:20:03Z</time>
      </trkpt>
      <trkpt lat="44.88361" lon="-0.58685">
        <ele>2.1</ele>
        <time>2022-02-02T13:20:12Z</time>
      </trkpt>
      <trkpt lat="44.8837" lon="-0.5869">
        <ele>2.3</ele>
        <time>2022-02-02T13:20:21Z</time>
      </trkpt>
      <trkpt lat="44.88376" lon="-0.58699">
        <ele>2.5</ele>
        <time>2022-02-02T13:20:28Z</time>
      </trkpt>
      <trkpt lat="44.88384" lon="-0.58708">
        <ele>2.6</ele>
        <time>2022-02-02T13:20:40Z</time>
      </trkpt>
      <trkpt lat="44.88393" lon="-0.58708">
        <ele>2.7</ele>
        <time>2022-02-02T13:20:49Z</time>
      </trkpt>
      <trkpt lat="44.88403" lon="-0.58709">
        <ele>2.8</ele>
        <time>2022-02-02T13:20:59Z</time>
      </trkpt>
      <trkpt lat="44.88413" lon="-0.5871">
        <ele>2.9</ele>
        <time>2022-02-02T13:21:06Z</time>
      </trkpt>
      <trkpt lat="44.88423" lon="-0.5871">
        <ele>3</ele>
        <time>2022-02-02T13:21:16Z</time>
      </trkpt>
      <trkpt lat="44.88433" lon="-0.58709">
        <ele>3</ele>
        <time>2022-02-02T13:21:24Z</time>
      </trkpt>
      <trkpt lat="44.88443" lon="-0.58713">
        <ele>3.1</ele>
        <time>2022-02-02T13:21:33Z</time>
      </trkpt>
      <trkpt lat="44.88452" lon="-0.58715">
        <ele>3.2</ele>
        <time>2022-02-02T13:21:40Z</time>
      </trkpt>
      <trkpt lat="44.88461" lon="-0.58717">
        <ele>3.2</ele>
        <time>2022-02-02T13:21:47Z</time>
      </trkpt>
      <trkpt lat="44.88471" lon="-0.58718">
        <ele>3.2</ele>
        <time>2022-02-02T13:21:56Z</time>
      </trkpt>
      <trkpt lat="44.8848" lon="-0.58719">
        <ele>3.3</ele>
        <time>2022-02-02T13:22:06Z</time>
      </trkpt>
      <trkpt lat="44.8849" lon="-0.5872">
        <ele>3.5</ele>
        <time>2022-02-02T13:22:16Z</time>
      </trkpt>
      <trkpt lat="44.88498" lon="-0.58716">
        <ele>3.8</ele>
        <time>2022-02-02T13:22:23Z</time>
      </trkpt>
      <trkpt lat="44.88506" lon="-0.58707">
        <ele>4.2</ele>
        <time>2022-02-02T13:22:32Z</time>
      </trkpt>
      <trkpt lat="44.88516" lon="-0.58704">
        <ele>4.5</ele>
        <time>2022-02-02T13:22:44Z</time>
      </trkpt>
      <trkpt lat="44.88525" lon="-0.58709">
        <ele>4.9</ele>
        <time>2022-02-02T13:22:53Z</time>
      </trkpt>
      <trkpt lat="44.88533" lon="-0.58717">
        <ele>5.3</ele>
        <time>2022-02-02T13:23:00Z</time>
      </trkpt>
      <trkpt lat="44.88538" lon="-0.58728">
        <ele>5.5</ele>
        <time>2022-02-02T13:23:08Z</time>
      </trkpt>
      <trkpt lat="44.88537" lon="-0.58741">
        <ele>5.6</ele>
        <time>2022-02-02T13:23:18Z</time>
      </trkpt>
      <trkpt lat="44.88542" lon="-0.58753">
        <ele>5.9</ele>
        <time>2022-02-02T13:23:28Z</time>
      </trkpt>
      <trkpt lat="44.88549" lon="-0.58762">
        <ele>6.2</ele>
        <time>2022-02-02T13:23:36Z</time>
      </trkpt>
      <trkpt lat="44.88559" lon="-0.58762">
        <ele>6.4</ele>
        <time>2022-02-02T13:23:45Z</time>
      </trkpt>
      <trkpt lat="44.88569" lon="-0.58763">
        <ele>6.4</ele>
        <time>2022-02-02T13:23:53Z</time>
      </trkpt>
      <trkpt lat="44.88578" lon="-0.58763">
        <ele>6.4</ele>
        <time>2022-02-02T13:23:59Z</time>
      </trkpt>
      <trkpt lat="44.88587" lon="-0.58765">
        <ele>6.2</ele>
        <time>2022-02-02T13:24:08Z</time>
      </trkpt>
      <trkpt lat="44.88597" lon="-0.58765">
        <ele>6.1</ele>
        <time>2022-02-02T13:24:18Z</time>
      </trkpt>
      <trkpt lat="44.88607" lon="-0.58764">
        <ele>6</ele>
        <time>2022-02-02T13:24:28Z</time>
      </trkpt>
      <trkpt lat="44.88616" lon="-0.58767">
        <ele>5.9</ele>
        <time>2022-02-02T13:24:36Z</time>
      </trkpt>
      <trkpt lat="44.88625" lon="-0.58773">
        <ele>5.9</ele>
        <time>2022-02-02T13:24:46Z</time>
      </trkpt>
      <trkpt lat="44.8863" lon="-0.58779">
        <ele>5.8</ele>
        <time>2022-02-02T13:24:58Z</time>
      </trkpt>
      <trkpt lat="44.88623" lon="-0.58772">
        <ele>6</ele>
        <time>2022-02-02T13:27:26Z</time>
      </trkpt>
      <trkpt lat="44.88624" lon="-0.58772">
        <ele>6</ele>
        <time>2022-02-02T13:27:37Z</time>
      </trkpt>
      <trkpt lat="44.88624" lon="-0.58783">
        <ele>4.5</ele>
        <time>2022-02-02T13:27:58Z</time>
      </trkpt>
      <trkpt lat="44.88626" lon="-0.58787">
        <ele>4.3</ele>
        <time>2022-02-02T13:28:00Z</time>
      </trkpt>
      <trkpt lat="44.88629" lon="-0.588">
        <ele>4.2</ele>
        <time>2022-02-02T13:28:05Z</time>
      </trkpt>
      <trkpt lat="44.88629" lon="-0.58813">
        <ele>4.2</ele>
        <time>2022-02-02T13:28:12Z</time>
      </trkpt>
      <trkpt lat="44.8863" lon="-0.58828">
        <ele>4.3</ele>
        <time>2022-02-02T13:28:20Z</time>
      </trkpt>
      <trkpt lat="44.88632" lon="-0.5884">
        <ele>4.5</ele>
        <time>2022-02-02T13:28:27Z</time>
      </trkpt>
      <trkpt lat="44.88631" lon="-0.58855">
        <ele>4.5</ele>
        <time>2022-02-02T13:28:35Z</time>
      </trkpt>
      <trkpt lat="44.88633" lon="-0.58868">
        <ele>4.6</ele>
        <time>2022-02-02T13:28:42Z</time>
      </trkpt>
      <trkpt lat="44.88635" lon="-0.58881">
        <ele>4.7</ele>
        <time>2022-02-02T13:28:50Z</time>
      </trkpt>
      <trkpt lat="44.88637" lon="-0.58894">
        <ele>4.9</ele>
        <time>2022-02-02T13:28:57Z</time>
      </trkpt>
      <trkpt lat="44.88639" lon="-0.58907">
        <ele>5.1</ele>
        <time>2022-02-02T13:29:08Z</time>
      </trkpt>
      <trkpt lat="44.88643" lon="-0.58919">
        <ele>5.3</ele>
        <time>2022-02-02T13:29:17Z</time>
      </trkpt>
      <trkpt lat="44.8865" lon="-0.5893">
        <ele>5.5</ele>
        <time>2022-02-02T13:29:26Z</time>
      </trkpt>
      <trkpt lat="44.88659" lon="-0.58936">
        <ele>5.7</ele>
        <time>2022-02-02T13:29:35Z</time>
      </trkpt>
      <trkpt lat="44.88667" lon="-0.58942">
        <ele>5.9</ele>
        <time>2022-02-02T13:29:46Z</time>
      </trkpt>
      <trkpt lat="44.8867" lon="-0.58955">
        <ele>6</ele>
        <time>2022-02-02T13:29:58Z</time>
      </trkpt>
      <trkpt lat="44.88669" lon="-0.58968">
        <ele>6</ele>
        <time>2022-02-02T13:30:11Z</time>
      </trkpt>
      <trkpt lat="44.8867" lon="-0.58981">
        <ele>6.1</ele>
        <time>2022-02-02T13:30:23Z</time>
      </trkpt>
      <trkpt lat="44.88665" lon="-0.58992">
        <ele>6.2</ele>
        <time>2022-02-02T13:30:32Z</time>
      </trkpt>
      <trkpt lat="44.88663" lon="-0.59005">
        <ele>6.2</ele>
        <time>2022-02-02T13:30:41Z</time>
      </trkpt>
      <trkpt lat="44.88663" lon="-0.59018">
        <ele>6.2</ele>
        <time>2022-02-02T13:30:47Z</time>
      </trkpt>
      <trkpt lat="44.88664" lon="-0.59032">
        <ele>6.1</ele>
        <time>2022-02-02T13:30:57Z</time>
      </trkpt>
      <trkpt lat="44.88664" lon="-0.59046">
        <ele>5.9</ele>
        <time>2022-02-02T13:31:06Z</time>
      </trkpt>
      <trkpt lat="44.88662" lon="-0.5906">
        <ele>5.6</ele>
        <time>2022-02-02T13:31:15Z</time>
      </trkpt>
      <trkpt lat="44.88661" lon="-0.59074">
        <ele>5.3</ele>
        <time>2022-02-02T13:31:24Z</time>
      </trkpt>
      <trkpt lat="44.88662" lon="-0.59088">
        <ele>4.9</ele>
        <time>2022-02-02T13:31:32Z</time>
      </trkpt>
      <trkpt lat="44.88658" lon="-0.59101">
        <ele>4.5</ele>
        <time>2022-02-02T13:31:43Z</time>
      </trkpt>
      <trkpt lat="44.88658" lon="-0.59114">
        <ele>4</ele>
        <time>2022-02-02T13:31:52Z</time>
      </trkpt>
      <trkpt lat="44.88659" lon="-0.59128">
        <ele>3.7</ele>
        <time>2022-02-02T13:32:03Z</time>
      </trkpt>
      <trkpt lat="44.8866" lon="-0.59142">
        <ele>3.3</ele>
        <time>2022-02-02T13:32:16Z</time>
      </trkpt>
      <trkpt lat="44.88659" lon="-0.59156">
        <ele>3</ele>
        <time>2022-02-02T13:32:24Z</time>
      </trkpt>
      <trkpt lat="44.88663" lon="-0.59168">
        <ele>2.6</ele>
        <time>2022-02-02T13:32:38Z</time>
      </trkpt>
      <trkpt lat="44.88664" lon="-0.59168">
        <ele>2.2</ele>
        <time>2022-02-02T13:32:43Z</time>
      </trkpt>
      <trkpt lat="44.88671" lon="-0.59173">
        <ele>2.5</ele>
        <time>2022-02-02T13:32:55Z</time>
      </trkpt>
      <trkpt lat="44.88671" lon="-0.59173">
        <ele>2.7</ele>
        <time>2022-02-02T13:32:56Z</time>
      </trkpt>
      <trkpt lat="44.88675" lon="-0.59185">
        <ele>2.9</ele>
        <time>2022-02-02T13:33:03Z</time>
      </trkpt>
      <trkpt lat="44.88674" lon="-0.59198">
        <ele>3</ele>
        <time>2022-02-02T13:33:11Z</time>
      </trkpt>
      <trkpt lat="44.88675" lon="-0.59212">
        <ele>3.1</ele>
        <time>2022-02-02T13:33:20Z</time>
      </trkpt>
      <trkpt lat="44.88677" lon="-0.59224">
        <ele>3.1</ele>
        <time>2022-02-02T13:33:27Z</time>
      </trkpt>
      <trkpt lat="44.8868" lon="-0.59238">
        <ele>3.3</ele>
        <time>2022-02-02T13:33:37Z</time>
      </trkpt>
      <trkpt lat="44.88687" lon="-0.59247">
        <ele>3.6</ele>
        <time>2022-02-02T13:33:49Z</time>
      </trkpt>
      <trkpt lat="44.88695" lon="-0.59252">
        <ele>3.8</ele>
        <time>2022-02-02T13:34:00Z</time>
      </trkpt>
      <trkpt lat="44.88703" lon="-0.5926">
        <ele>3.9</ele>
        <time>2022-02-02T13:34:09Z</time>
      </trkpt>
      <trkpt lat="44.88707" lon="-0.59256">
        <ele>3.8</ele>
        <time>2022-02-02T13:34:25Z</time>
      </trkpt>
      <trkpt lat="44.88716" lon="-0.59254">
        <ele>3.2</ele>
        <time>2022-02-02T13:34:40Z</time>
      </trkpt>
      <trkpt lat="44.8872" lon="-0.5925">
        <ele>3.4</ele>
        <time>2022-02-02T13:34:45Z</time>
      </trkpt>
      <trkpt lat="44.88727" lon="-0.59242">
        <ele>3.6</ele>
        <time>2022-02-02T13:34:53Z</time>
      </trkpt>
      <trkpt lat="44.88736" lon="-0.59235">
        <ele>3.8</ele>
        <time>2022-02-02T13:35:03Z</time>
      </trkpt>
      <trkpt lat="44.88741" lon="-0.59224">
        <ele>3.9</ele>
        <time>2022-02-02T13:35:13Z</time>
      </trkpt>
      <trkpt lat="44.8875" lon="-0.59222">
        <ele>4</ele>
        <time>2022-02-02T13:35:25Z</time>
      </trkpt>
      <trkpt lat="44.88756" lon="-0.59233">
        <ele>4.1</ele>
        <time>2022-02-02T13:35:33Z</time>
      </trkpt>
      <trkpt lat="44.88761" lon="-0.59243">
        <ele>4.3</ele>
        <time>2022-02-02T13:35:42Z</time>
      </trkpt>
      <trkpt lat="44.88766" lon="-0.59257">
        <ele>4.4</ele>
        <time>2022-02-02T13:35:52Z</time>
      </trkpt>
      <trkpt lat="44.88771" lon="-0.59269">
        <ele>4.3</ele>
        <time>2022-02-02T13:36:00Z</time>
      </trkpt>
      <trkpt lat="44.88777" lon="-0.59281">
        <ele>4.1</ele>
        <time>2022-02-02T13:36:06Z</time>
      </trkpt>
      <trkpt lat="44.88778" lon="-0.59293">
        <ele>3.8</ele>
        <time>2022-02-02T13:36:14Z</time>
      </trkpt>
      <trkpt lat="44.88783" lon="-0.59305">
        <ele>3.6</ele>
        <time>2022-02-02T13:36:22Z</time>
      </trkpt>
      <trkpt lat="44.88787" lon="-0.59318">
        <ele>3.5</ele>
        <time>2022-02-02T13:36:33Z</time>
      </trkpt>
      <trkpt lat="44.88791" lon="-0.59329">
        <ele>3.5</ele>
        <time>2022-02-02T13:36:42Z</time>
      </trkpt>
      <trkpt lat="44.88788" lon="-0.59342">
        <ele>3.6</ele>
        <time>2022-02-02T13:36:52Z</time>
      </trkpt>
      <trkpt lat="44.88784" lon="-0.59355">
        <ele>3.8</ele>
        <time>2022-02-02T13:36:59Z</time>
      </trkpt>
      <trkpt lat="44.88784" lon="-0.59369">
        <ele>4.1</ele>
        <time>2022-02-02T13:37:07Z</time>
      </trkpt>
      <trkpt lat="44.88783" lon="-0.59383">
        <ele>4.4</ele>
        <time>2022-02-02T13:37:15Z</time>
      </trkpt>
      <trkpt lat="44.88784" lon="-0.59397">
        <ele>4.7</ele>
        <time>2022-02-02T13:37:23Z</time>
      </trkpt>
      <trkpt lat="44.88783" lon="-0.59411">
        <ele>5.2</ele>
        <time>2022-02-02T13:37:32Z</time>
      </trkpt>
      <trkpt lat="44.8878" lon="-0.59424">
        <ele>5.6</ele>
        <time>2022-02-02T13:37:41Z</time>
      </trkpt>
      <trkpt lat="44.88774" lon="-0.59435">
        <ele>6</ele>
        <time>2022-02-02T13:37:49Z</time>
      </trkpt>
      <trkpt lat="44.88767" lon="-0.59445">
        <ele>6.3</ele>
        <time>2022-02-02T13:37:58Z</time>
      </trkpt>
      <trkpt lat="44.88764" lon="-0.59458">
        <ele>6.5</ele>
        <time>2022-02-02T13:38:06Z</time>
      </trkpt>
      <trkpt lat="44.88759" lon="-0.59469">
        <ele>6.7</ele>
        <time>2022-02-02T13:38:14Z</time>
      </trkpt>
      <trkpt lat="44.88752" lon="-0.59478">
        <ele>6.8</ele>
        <time>2022-02-02T13:38:23Z</time>
      </trkpt>
      <trkpt lat="44.88745" lon="-0.59486">
        <ele>6.7</ele>
        <time>2022-02-02T13:38:32Z</time>
      </trkpt>
      <trkpt lat="44.88742" lon="-0.59491">
        <ele>6.7</ele>
        <time>2022-02-02T13:38:45Z</time>
      </trkpt>
      <trkpt lat="44.88735" lon="-0.59497">
        <ele>5</ele>
        <time>2022-02-02T13:41:04Z</time>
      </trkpt>
      <trkpt lat="44.88734" lon="-0.595">
        <ele>5</ele>
        <time>2022-02-02T13:41:15Z</time>
      </trkpt>
      <trkpt lat="44.88727" lon="-0.59506">
        <ele>2.8</ele>
        <time>2022-02-02T13:41:26Z</time>
      </trkpt>
      <trkpt lat="44.88722" lon="-0.59511">
        <ele>2.7</ele>
        <time>2022-02-02T13:41:31Z</time>
      </trkpt>
      <trkpt lat="44.88716" lon="-0.5952">
        <ele>2.6</ele>
        <time>2022-02-02T13:41:41Z</time>
      </trkpt>
      <trkpt lat="44.88715" lon="-0.59536">
        <ele>2.6</ele>
        <time>2022-02-02T13:41:49Z</time>
      </trkpt>
      <trkpt lat="44.88708" lon="-0.59544">
        <ele>2.6</ele>
        <time>2022-02-02T13:42:00Z</time>
      </trkpt>
      <trkpt lat="44.88702" lon="-0.59555">
        <ele>2.7</ele>
        <time>2022-02-02T13:42:09Z</time>
      </trkpt>
      <trkpt lat="44.88707" lon="-0.59568">
        <ele>2.7</ele>
        <time>2022-02-02T13:42:19Z</time>
      </trkpt>
      <trkpt lat="44.88711" lon="-0.59579">
        <ele>2.9</ele>
        <time>2022-02-02T13:42:28Z</time>
      </trkpt>
      <trkpt lat="44.88713" lon="-0.59591">
        <ele>3</ele>
        <time>2022-02-02T13:42:40Z</time>
      </trkpt>
      <trkpt lat="44.88715" lon="-0.59605">
        <ele>2.9</ele>
        <time>2022-02-02T13:42:49Z</time>
      </trkpt>
      <trkpt lat="44.88707" lon="-0.59613">
        <ele>2.9</ele>
        <time>2022-02-02T13:42:59Z</time>
      </trkpt>
      <trkpt lat="44.88701" lon="-0.59623">
        <ele>2.8</ele>
        <time>2022-02-02T13:43:10Z</time>
      </trkpt>
      <trkpt lat="44.88695" lon="-0.59633">
        <ele>2.7</ele>
        <time>2022-02-02T13:43:19Z</time>
      </trkpt>
      <trkpt lat="44.88685" lon="-0.59635">
        <ele>2.5</ele>
        <time>2022-02-02T13:43:26Z</time>
      </trkpt>
      <trkpt lat="44.88676" lon="-0.5963">
        <ele>2.5</ele>
        <time>2022-02-02T13:43:35Z</time>
      </trkpt>
      <trkpt lat="44.88668" lon="-0.59626">
        <ele>2.4</ele>
        <time>2022-02-02T13:43:44Z</time>
      </trkpt>
      <trkpt lat="44.88659" lon="-0.59622">
        <ele>2.2</ele>
        <time>2022-02-02T13:43:52Z</time>
      </trkpt>
      <trkpt lat="44.88649" lon="-0.59625">
        <ele>2.1</ele>
        <time>2022-02-02T13:44:01Z</time>
      </trkpt>
      <trkpt lat="44.88639" lon="-0.59629">
        <ele>2</ele>
        <time>2022-02-02T13:44:11Z</time>
      </trkpt>
      <trkpt lat="44.88632" lon="-0.59638">
        <ele>2</ele>
        <time>2022-02-02T13:44:19Z</time>
      </trkpt>
      <trkpt lat="44.88626" lon="-0.59647">
        <ele>2.3</ele>
        <time>2022-02-02T13:44:29Z</time>
      </trkpt>
      <trkpt lat="44.88617" lon="-0.59655">
        <ele>2.5</ele>
        <time>2022-02-02T13:44:37Z</time>
      </trkpt>
      <trkpt lat="44.88611" lon="-0.59665">
        <ele>2.9</ele>
        <time>2022-02-02T13:44:46Z</time>
      </trkpt>
      <trkpt lat="44.88605" lon="-0.59675">
        <ele>3.3</ele>
        <time>2022-02-02T13:44:56Z</time>
      </trkpt>
      <trkpt lat="44.88596" lon="-0.59685">
        <ele>3.8</ele>
        <time>2022-02-02T13:45:04Z</time>
      </trkpt>
      <trkpt lat="44.88591" lon="-0.59695">
        <ele>4.3</ele>
        <time>2022-02-02T13:45:12Z</time>
      </trkpt>
      <trkpt lat="44.88584" lon="-0.59704">
        <ele>4.6</ele>
        <time>2022-02-02T13:45:21Z</time>
      </trkpt>
      <trkpt lat="44.88576" lon="-0.59712">
        <ele>4.9</ele>
        <time>2022-02-02T13:45:29Z</time>
      </trkpt>
      <trkpt lat="44.88572" lon="-0.59723">
        <ele>5.1</ele>
        <time>2022-02-02T13:45:37Z</time>
      </trkpt>
      <trkpt lat="44.88564" lon="-0.59733">
        <ele>5.2</ele>
        <time>2022-02-02T13:45:47Z</time>
      </trkpt>
      <trkpt lat="44.88557" lon="-0.59742">
        <ele>5.3</ele>
        <time>2022-02-02T13:45:56Z</time>
      </trkpt>
      <trkpt lat="44.88546" lon="-0.59762">
        <ele>5.3</ele>
        <time>2022-02-02T13:46:24Z</time>
      </trkpt>
      <trkpt lat="44.8854" lon="-0.59773">
        <ele>5.3</ele>
        <time>2022-02-02T13:46:33Z</time>
      </trkpt>
      <trkpt lat="44.88532" lon="-0.5978">
        <ele>5.3</ele>
        <time>2022-02-02T13:46:40Z</time>
      </trkpt>
      <trkpt lat="44.88525" lon="-0.5979">
        <ele>5.3</ele>
        <time>2022-02-02T13:46:49Z</time>
      </trkpt>
      <trkpt lat="44.8852" lon="-0.598">
        <ele>5.1</ele>
        <time>2022-02-02T13:46:56Z</time>
      </trkpt>
      <trkpt lat="44.88514" lon="-0.59811">
        <ele>4.8</ele>
        <time>2022-02-02T13:47:06Z</time>
      </trkpt>
      <trkpt lat="44.88507" lon="-0.59819">
        <ele>4.5</ele>
        <time>2022-02-02T13:47:14Z</time>
      </trkpt>
      <trkpt lat="44.88499" lon="-0.59826">
        <ele>4.2</ele>
        <time>2022-02-02T13:47:21Z</time>
      </trkpt>
      <trkpt lat="44.88492" lon="-0.59835">
        <ele>4</ele>
        <time>2022-02-02T13:47:29Z</time>
      </trkpt>
      <trkpt lat="44.88484" lon="-0.59842">
        <ele>3.8</ele>
        <time>2022-02-02T13:47:38Z</time>
      </trkpt>
      <trkpt lat="44.88477" lon="-0.59852">
        <ele>3.6</ele>
        <time>2022-02-02T13:47:48Z</time>
      </trkpt>
      <trkpt lat="44.88468" lon="-0.59861">
        <ele>3.5</ele>
        <time>2022-02-02T13:47:56Z</time>
      </trkpt>
      <trkpt lat="44.88462" lon="-0.59871">
        <ele>3.4</ele>
        <time>2022-02-02T13:48:04Z</time>
      </trkpt>
      <trkpt lat="44.88453" lon="-0.59876">
        <ele>3.3</ele>
        <time>2022-02-02T13:48:11Z</time>
      </trkpt>
      <trkpt lat="44.88446" lon="-0.59887">
        <ele>3.2</ele>
        <time>2022-02-02T13:48:20Z</time>
      </trkpt>
      <trkpt lat="44.88443" lon="-0.59899">
        <ele>3.1</ele>
        <time>2022-02-02T13:48:29Z</time>
      </trkpt>
      <trkpt lat="44.88437" lon="-0.5991">
        <ele>3.1</ele>
        <time>2022-02-02T13:48:37Z</time>
      </trkpt>
      <trkpt lat="44.88431" lon="-0.5992">
        <ele>3.2</ele>
        <time>2022-02-02T13:48:45Z</time>
      </trkpt>
      <trkpt lat="44.88424" lon="-0.59929">
        <ele>3.4</ele>
        <time>2022-02-02T13:48:54Z</time>
      </trkpt>
      <trkpt lat="44.88422" lon="-0.59932">
        <ele>3.5</ele>
        <time>2022-02-02T13:49:03Z</time>
      </trkpt>
      <trkpt lat="44.88415" lon="-0.59936">
        <ele>5</ele>
        <time>2022-02-02T13:49:20Z</time>
      </trkpt>
      <trkpt lat="44.88408" lon="-0.59939">
        <ele>5</ele>
        <time>2022-02-02T13:49:26Z</time>
      </trkpt>
      <trkpt lat="44.88401" lon="-0.5995">
        <ele>5</ele>
        <time>2022-02-02T13:49:36Z</time>
      </trkpt>
      <trkpt lat="44.88396" lon="-0.5996">
        <ele>5.1</ele>
        <time>2022-02-02T13:49:45Z</time>
      </trkpt>
      <trkpt lat="44.88393" lon="-0.59973">
        <ele>5.2</ele>
        <time>2022-02-02T13:49:56Z</time>
      </trkpt>
      <trkpt lat="44.88391" lon="-0.59986">
        <ele>5.4</ele>
        <time>2022-02-02T13:50:04Z</time>
      </trkpt>
      <trkpt lat="44.88387" lon="-0.59999">
        <ele>5.5</ele>
        <time>2022-02-02T13:50:13Z</time>
      </trkpt>
      <trkpt lat="44.88381" lon="-0.60009">
        <ele>5.8</ele>
        <time>2022-02-02T13:50:22Z</time>
      </trkpt>
      <trkpt lat="44.88382" lon="-0.60022">
        <ele>6.1</ele>
        <time>2022-02-02T13:50:30Z</time>
      </trkpt>
      <trkpt lat="44.88383" lon="-0.60035">
        <ele>6.4</ele>
        <time>2022-02-02T13:50:39Z</time>
      </trkpt>
      <trkpt lat="44.88384" lon="-0.6005">
        <ele>6.6</ele>
        <time>2022-02-02T13:50:48Z</time>
      </trkpt>
      <trkpt lat="44.88388" lon="-0.60061">
        <ele>6.9</ele>
        <time>2022-02-02T13:50:56Z</time>
      </trkpt>
      <trkpt lat="44.88388" lon="-0.60075">
        <ele>7.2</ele>
        <time>2022-02-02T13:51:05Z</time>
      </trkpt>
      <trkpt lat="44.88394" lon="-0.60085">
        <ele>7.5</ele>
        <time>2022-02-02T13:51:17Z</time>
      </trkpt>
      <trkpt lat="44.884" lon="-0.60096">
        <ele>7.7</ele>
        <time>2022-02-02T13:51:32Z</time>
      </trkpt>
      <trkpt lat="44.88405" lon="-0.60107">
        <ele>7.9</ele>
        <time>2022-02-02T13:51:44Z</time>
      </trkpt>
      <trkpt lat="44.88407" lon="-0.60119">
        <ele>8</ele>
        <time>2022-02-02T13:51:52Z</time>
      </trkpt>
      <trkpt lat="44.88408" lon="-0.60132">
        <ele>8.1</ele>
        <time>2022-02-02T13:52:03Z</time>
      </trkpt>
      <trkpt lat="44.88407" lon="-0.60135">
        <ele>8.2</ele>
        <time>2022-02-02T13:52:08Z</time>
      </trkpt>
      <trkpt lat="44.88399" lon="-0.60138">
        <ele>9.8</ele>
        <time>2022-02-02T13:52:25Z</time>
      </trkpt>
      <trkpt lat="44.8839" lon="-0.60142">
        <ele>9.7</ele>
        <time>2022-02-02T13:52:36Z</time>
      </trkpt>
      <trkpt lat="44.88381" lon="-0.60144">
        <ele>9.6</ele>
        <time>2022-02-02T13:52:44Z</time>
      </trkpt>
      <trkpt lat="44.88371" lon="-0.60147">
        <ele>9.6</ele>
        <time>2022-02-02T13:52:52Z</time>
      </trkpt>
      <trkpt lat="44.88363" lon="-0.60151">
        <ele>9.6</ele>
        <time>2022-02-02T13:53:02Z</time>
      </trkpt>
      <trkpt lat="44.88354" lon="-0.60157">
        <ele>9.6</ele>
        <time>2022-02-02T13:53:11Z</time>
      </trkpt>
      <trkpt lat="44.88345" lon="-0.6016">
        <ele>9.7</ele>
        <time>2022-02-02T13:53:20Z</time>
      </trkpt>
      <trkpt lat="44.88338" lon="-0.60169">
        <ele>9.7</ele>
        <time>2022-02-02T13:53:34Z</time>
      </trkpt>
      <trkpt lat="44.88333" lon="-0.6018">
        <ele>9.8</ele>
        <time>2022-02-02T13:53:44Z</time>
      </trkpt>
      <trkpt lat="44.88326" lon="-0.60186">
        <ele>9.8</ele>
        <time>2022-02-02T13:53:55Z</time>
      </trkpt>
      <trkpt lat="44.88316" lon="-0.60192">
        <ele>9.9</ele>
        <time>2022-02-02T13:54:03Z</time>
      </trkpt>
      <trkpt lat="44.88307" lon="-0.60196">
        <ele>10</ele>
        <time>2022-02-02T13:54:10Z</time>
      </trkpt>
      <trkpt lat="44.88298" lon="-0.60203">
        <ele>10.1</ele>
        <time>2022-02-02T13:54:19Z</time>
      </trkpt>
      <trkpt lat="44.88292" lon="-0.60213">
        <ele>10.3</ele>
        <time>2022-02-02T13:54:27Z</time>
      </trkpt>
      <trkpt lat="44.88283" lon="-0.60214">
        <ele>10.5</ele>
        <time>2022-02-02T13:54:35Z</time>
      </trkpt>
      <trkpt lat="44.88273" lon="-0.60218">
        <ele>10.5</ele>
        <time>2022-02-02T13:54:48Z</time>
      </trkpt>
      <trkpt lat="44.88266" lon="-0.60225">
        <ele>10.7</ele>
        <time>2022-02-02T13:54:54Z</time>
      </trkpt>
      <trkpt lat="44.88257" lon="-0.60229">
        <ele>11</ele>
        <time>2022-02-02T13:55:00Z</time>
      </trkpt>
      <trkpt lat="44.88249" lon="-0.60236">
        <ele>11.2</ele>
        <time>2022-02-02T13:55:09Z</time>
      </trkpt>
      <trkpt lat="44.8824" lon="-0.60232">
        <ele>11.3</ele>
        <time>2022-02-02T13:55:19Z</time>
      </trkpt>
      <trkpt lat="44.88231" lon="-0.60225">
        <ele>11.4</ele>
        <time>2022-02-02T13:55:29Z</time>
      </trkpt>
      <trkpt lat="44.88223" lon="-0.60217">
        <ele>11.4</ele>
        <time>2022-02-02T13:55:38Z</time>
      </trkpt>
      <trkpt lat="44.88215" lon="-0.60209">
        <ele>11.4</ele>
        <time>2022-02-02T13:55:49Z</time>
      </trkpt>
      <trkpt lat="44.88216" lon="-0.60182">
        <ele>11.6</ele>
        <time>2022-02-02T13:56:13Z</time>
      </trkpt>
      <trkpt lat="44.88215" lon="-0.60169">
        <ele>11.6</ele>
        <time>2022-02-02T13:56:21Z</time>
      </trkpt>
      <trkpt lat="44.88214" lon="-0.60156">
        <ele>11.7</ele>
        <time>2022-02-02T13:56:28Z</time>
      </trkpt>
      <trkpt lat="44.88214" lon="-0.60146">
        <ele>11.8</ele>
        <time>2022-02-02T13:56:43Z</time>
      </trkpt>
      <trkpt lat="44.88208" lon="-0.60138">
        <ele>11</ele>
        <time>2022-02-02T13:58:30Z</time>
      </trkpt>
      <trkpt lat="44.88207" lon="-0.60135">
        <ele>11</ele>
        <time>2022-02-02T13:58:32Z</time>
      </trkpt>
      <trkpt lat="44.88204" lon="-0.60123">
        <ele>11</ele>
        <time>2022-02-02T13:58:41Z</time>
      </trkpt>
      <trkpt lat="44.88201" lon="-0.60114">
        <ele>11</ele>
        <time>2022-02-02T13:58:56Z</time>
      </trkpt>
      <trkpt lat="44.88193" lon="-0.6011">
        <ele>12.8</ele>
        <time>2022-02-02T14:02:21Z</time>
      </trkpt>
      <trkpt lat="44.88185" lon="-0.60107">
        <ele>13.3</ele>
        <time>2022-02-02T14:02:28Z</time>
      </trkpt>
      <trkpt lat="44.88176" lon="-0.60104">
        <ele>13.6</ele>
        <time>2022-02-02T14:02:39Z</time>
      </trkpt>
      <trkpt lat="44.88167" lon="-0.60101">
        <ele>13.8</ele>
        <time>2022-02-02T14:02:47Z</time>
      </trkpt>
      <trkpt lat="44.88158" lon="-0.60097">
        <ele>14</ele>
        <time>2022-02-02T14:02:56Z</time>
      </trkpt>
      <trkpt lat="44.8815" lon="-0.60091">
        <ele>14.2</ele>
        <time>2022-02-02T14:03:05Z</time>
      </trkpt>
      <trkpt lat="44.88143" lon="-0.60081">
        <ele>14.6</ele>
        <time>2022-02-02T14:03:14Z</time>
      </trkpt>
      <trkpt lat="44.88137" lon="-0.60071">
        <ele>14.9</ele>
        <time>2022-02-02T14:03:22Z</time>
      </trkpt>
      <trkpt lat="44.88134" lon="-0.60058">
        <ele>15.2</ele>
        <time>2022-02-02T14:03:30Z</time>
      </trkpt>
      <trkpt lat="44.88128" lon="-0.60046">
        <ele>15.3</ele>
        <time>2022-02-02T14:03:39Z</time>
      </trkpt>
      <trkpt lat="44.88123" lon="-0.60034">
        <ele>15.3</ele>
        <time>2022-02-02T14:03:48Z</time>
      </trkpt>
      <trkpt lat="44.88118" lon="-0.60023">
        <ele>15.2</ele>
        <time>2022-02-02T14:03:56Z</time>
      </trkpt>
      <trkpt lat="44.88111" lon="-0.60012">
        <ele>15</ele>
        <time>2022-02-02T14:04:07Z</time>
      </trkpt>
      <trkpt lat="44.88104" lon="-0.60001">
        <ele>14.8</ele>
        <time>2022-02-02T14:04:15Z</time>
      </trkpt>
      <trkpt lat="44.88098" lon="-0.59991">
        <ele>14.7</ele>
        <time>2022-02-02T14:04:23Z</time>
      </trkpt>
      <trkpt lat="44.88091" lon="-0.59982">
        <ele>14.5</ele>
        <time>2022-02-02T14:04:31Z</time>
      </trkpt>
      <trkpt lat="44.88084" lon="-0.59972">
        <ele>14.4</ele>
        <time>2022-02-02T14:04:40Z</time>
      </trkpt>
      <trkpt lat="44.88078" lon="-0.59962">
        <ele>14.3</ele>
        <time>2022-02-02T14:04:47Z</time>
      </trkpt>
      <trkpt lat="44.8807" lon="-0.59956">
        <ele>14.3</ele>
        <time>2022-02-02T14:04:55Z</time>
      </trkpt>
      <trkpt lat="44.88062" lon="-0.59948">
        <ele>14.3</ele>
        <time>2022-02-02T14:05:03Z</time>
      </trkpt>
      <trkpt lat="44.88054" lon="-0.59941">
        <ele>14.5</ele>
        <time>2022-02-02T14:05:11Z</time>
      </trkpt>
      <trkpt lat="44.88047" lon="-0.59932">
        <ele>14.6</ele>
        <time>2022-02-02T14:05:18Z</time>
      </trkpt>
      <trkpt lat="44.88039" lon="-0.59925">
        <ele>14.8</ele>
        <time>2022-02-02T14:05:25Z</time>
      </trkpt>
      <trkpt lat="44.88029" lon="-0.59924">
        <ele>15</ele>
        <time>2022-02-02T14:05:35Z</time>
      </trkpt>
      <trkpt lat="44.88019" lon="-0.59924">
        <ele>15.1</ele>
        <time>2022-02-02T14:05:42Z</time>
      </trkpt>
      <trkpt lat="44.88009" lon="-0.59921">
        <ele>15.2</ele>
        <time>2022-02-02T14:05:51Z</time>
      </trkpt>
      <trkpt lat="44.88001" lon="-0.59915">
        <ele>15.3</ele>
        <time>2022-02-02T14:05:59Z</time>
      </trkpt>
      <trkpt lat="44.87994" lon="-0.59905">
        <ele>15.4</ele>
        <time>2022-02-02T14:06:07Z</time>
      </trkpt>
      <trkpt lat="44.87992" lon="-0.59892">
        <ele>15.3</ele>
        <time>2022-02-02T14:06:16Z</time>
      </trkpt>
      <trkpt lat="44.8799" lon="-0.5988">
        <ele>15.3</ele>
        <time>2022-02-02T14:06:25Z</time>
      </trkpt>
      <trkpt lat="44.87983" lon="-0.5987">
        <ele>15.3</ele>
        <time>2022-02-02T14:06:34Z</time>
      </trkpt>
      <trkpt lat="44.87983" lon="-0.59856">
        <ele>15.2</ele>
        <time>2022-02-02T14:06:48Z</time>
      </trkpt>
      <trkpt lat="44.87986" lon="-0.59843">
        <ele>15.1</ele>
        <time>2022-02-02T14:06:57Z</time>
      </trkpt>
      <trkpt lat="44.87987" lon="-0.5983">
        <ele>15.1</ele>
        <time>2022-02-02T14:07:05Z</time>
      </trkpt>
      <trkpt lat="44.87982" lon="-0.59817">
        <ele>15.1</ele>
        <time>2022-02-02T14:07:16Z</time>
      </trkpt>
      <trkpt lat="44.87979" lon="-0.59804">
        <ele>15.2</ele>
        <time>2022-02-02T14:07:26Z</time>
      </trkpt>
      <trkpt lat="44.87972" lon="-0.59795">
        <ele>15.3</ele>
        <time>2022-02-02T14:07:37Z</time>
      </trkpt>
      <trkpt lat="44.87965" lon="-0.59804">
        <ele>15.4</ele>
        <time>2022-02-02T14:07:48Z</time>
      </trkpt>
      <trkpt lat="44.87955" lon="-0.59803">
        <ele>15.5</ele>
        <time>2022-02-02T14:07:56Z</time>
      </trkpt>
      <trkpt lat="44.87946" lon="-0.59798">
        <ele>15.5</ele>
        <time>2022-02-02T14:08:06Z</time>
      </trkpt>
      <trkpt lat="44.87943" lon="-0.59787">
        <ele>15.5</ele>
        <time>2022-02-02T14:08:13Z</time>
      </trkpt>
      <trkpt lat="44.87944" lon="-0.59774">
        <ele>15.5</ele>
        <time>2022-02-02T14:08:23Z</time>
      </trkpt>
      <trkpt lat="44.87945" lon="-0.5976">
        <ele>15.5</ele>
        <time>2022-02-02T14:08:31Z</time>
      </trkpt>
      <trkpt lat="44.87948" lon="-0.59748">
        <ele>15.5</ele>
        <time>2022-02-02T14:08:38Z</time>
      </trkpt>
      <trkpt lat="44.87944" lon="-0.59735">
        <ele>15.3</ele>
        <time>2022-02-02T14:08:48Z</time>
      </trkpt>
      <trkpt lat="44.87936" lon="-0.59728">
        <ele>15.1</ele>
        <time>2022-02-02T14:08:56Z</time>
      </trkpt>
      <trkpt lat="44.87926" lon="-0.59724">
        <ele>14.8</ele>
        <time>2022-02-02T14:09:06Z</time>
      </trkpt>
      <trkpt lat="44.87917" lon="-0.59724">
        <ele>14.5</ele>
        <time>2022-02-02T14:09:13Z</time>
      </trkpt>
      <trkpt lat="44.87908" lon="-0.59724">
        <ele>14.4</ele>
        <time>2022-02-02T14:09:22Z</time>
      </trkpt>
      <trkpt lat="44.879" lon="-0.5973">
        <ele>14.2</ele>
        <time>2022-02-02T14:09:33Z</time>
      </trkpt>
      <trkpt lat="44.87896" lon="-0.59742">
        <ele>14.2</ele>
        <time>2022-02-02T14:09:43Z</time>
      </trkpt>
      <trkpt lat="44.87888" lon="-0.59734">
        <ele>14.2</ele>
        <time>2022-02-02T14:09:51Z</time>
      </trkpt>
      <trkpt lat="44.87879" lon="-0.59732">
        <ele>14.2</ele>
        <time>2022-02-02T14:09:58Z</time>
      </trkpt>
      <trkpt lat="44.87874" lon="-0.59743">
        <ele>14.3</ele>
        <time>2022-02-02T14:10:09Z</time>
      </trkpt>
      <trkpt lat="44.87878" lon="-0.59756">
        <ele>14.4</ele>
        <time>2022-02-02T14:10:18Z</time>
      </trkpt>
      <trkpt lat="44.87882" lon="-0.59767">
        <ele>14.5</ele>
        <time>2022-02-02T14:10:28Z</time>
      </trkpt>
      <trkpt lat="44.87882" lon="-0.5978">
        <ele>14.5</ele>
        <time>2022-02-02T14:10:41Z</time>
      </trkpt>
      <trkpt lat="44.87881" lon="-0.59793">
        <ele>14.7</ele>
        <time>2022-02-02T14:10:50Z</time>
      </trkpt>
      <trkpt lat="44.87876" lon="-0.59806">
        <ele>14.9</ele>
        <time>2022-02-02T14:10:59Z</time>
      </trkpt>
      <trkpt lat="44.87867" lon="-0.59812">
        <ele>15</ele>
        <time>2022-02-02T14:11:07Z</time>
      </trkpt>
      <trkpt lat="44.87858" lon="-0.59818">
        <ele>15.1</ele>
        <time>2022-02-02T14:11:14Z</time>
      </trkpt>
      <trkpt lat="44.87856" lon="-0.59831">
        <ele>15.1</ele>
        <time>2022-02-02T14:11:22Z</time>
      </trkpt>
      <trkpt lat="44.87856" lon="-0.59844">
        <ele>15.1</ele>
        <time>2022-02-02T14:11:32Z</time>
      </trkpt>
      <trkpt lat="44.87857" lon="-0.59846">
        <ele>15.2</ele>
        <time>2022-02-02T14:11:40Z</time>
      </trkpt>
      <trkpt lat="44.87852" lon="-0.59856">
        <ele>15</ele>
        <time>2022-02-02T14:12:25Z</time>
      </trkpt>
      <trkpt lat="44.87846" lon="-0.59868">
        <ele>15</ele>
        <time>2022-02-02T14:12:34Z</time>
      </trkpt>
      <trkpt lat="44.87839" lon="-0.59878">
        <ele>15</ele>
        <time>2022-02-02T14:12:43Z</time>
      </trkpt>
      <trkpt lat="44.87832" lon="-0.59886">
        <ele>15</ele>
        <time>2022-02-02T14:12:59Z</time>
      </trkpt>
      <trkpt lat="44.8783" lon="-0.59892">
        <ele>15</ele>
        <time>2022-02-02T14:13:14Z</time>
      </trkpt>
      <trkpt lat="44.87823" lon="-0.599">
        <ele>16.5</ele>
        <time>2022-02-02T14:13:42Z</time>
      </trkpt>
      <trkpt lat="44.87822" lon="-0.59901">
        <ele>16.5</ele>
        <time>2022-02-02T14:13:53Z</time>
      </trkpt>
      <trkpt lat="44.87815" lon="-0.59905">
        <ele>17</ele>
        <time>2022-02-02T14:15:15Z</time>
      </trkpt>
      <trkpt lat="44.87814" lon="-0.59903">
        <ele>17</ele>
        <time>2022-02-02T14:15:26Z</time>
      </trkpt>
      <trkpt lat="44.87818" lon="-0.59894">
        <ele>16.7</ele>
        <time>2022-02-02T14:16:07Z</time>
      </trkpt>
      <trkpt lat="44.87818" lon="-0.59892">
        <ele>16.7</ele>
        <time>2022-02-02T14:16:12Z</time>
      </trkpt>
      <trkpt lat="44.87823" lon="-0.59885">
        <ele>16.7</ele>
        <time>2022-02-02T14:16:26Z</time>
      </trkpt>
      <trkpt lat="44.87829" lon="-0.59896">
        <ele>15.7</ele>
        <time>2022-02-02T14:16:37Z</time>
      </trkpt>
      <trkpt lat="44.87832" lon="-0.59906">
        <ele>15.3</ele>
        <time>2022-02-02T14:16:46Z</time>
      </trkpt>
      <trkpt lat="44.87839" lon="-0.59915">
        <ele>15</ele>
        <time>2022-02-02T14:16:59Z</time>
      </trkpt>
      <trkpt lat="44.87848" lon="-0.59922">
        <ele>14.7</ele>
        <time>2022-02-02T14:17:05Z</time>
      </trkpt>
      <trkpt lat="44.87857" lon="-0.59918">
        <ele>14.3</ele>
        <time>2022-02-02T14:17:18Z</time>
      </trkpt>
      <trkpt lat="44.87867" lon="-0.59915">
        <ele>14</ele>
        <time>2022-02-02T14:17:34Z</time>
      </trkpt>
      <trkpt lat="44.87874" lon="-0.59903">
        <ele>13.5</ele>
        <time>2022-02-02T14:17:41Z</time>
      </trkpt>
      <trkpt lat="44.87882" lon="-0.59896">
        <ele>12.9</ele>
        <time>2022-02-02T14:17:50Z</time>
      </trkpt>
      <trkpt lat="44.87892" lon="-0.59894">
        <ele>12.4</ele>
        <time>2022-02-02T14:18:00Z</time>
      </trkpt>
      <trkpt lat="44.87901" lon="-0.59901">
        <ele>11.9</ele>
        <time>2022-02-02T14:18:09Z</time>
      </trkpt>
      <trkpt lat="44.87908" lon="-0.59912">
        <ele>11.5</ele>
        <time>2022-02-02T14:18:18Z</time>
      </trkpt>
      <trkpt lat="44.87913" lon="-0.59925">
        <ele>11.4</ele>
        <time>2022-02-02T14:18:22Z</time>
      </trkpt>
      <trkpt lat="44.87917" lon="-0.59938">
        <ele>11.4</ele>
        <time>2022-02-02T14:18:30Z</time>
      </trkpt>
      <trkpt lat="44.87921" lon="-0.59952">
        <ele>11.5</ele>
        <time>2022-02-02T14:18:37Z</time>
      </trkpt>
      <trkpt lat="44.87917" lon="-0.59964">
        <ele>11.6</ele>
        <time>2022-02-02T14:18:51Z</time>
      </trkpt>
      <trkpt lat="44.87914" lon="-0.59977">
        <ele>12</ele>
        <time>2022-02-02T14:19:01Z</time>
      </trkpt>
      <trkpt lat="44.87914" lon="-0.5999">
        <ele>12.5</ele>
        <time>2022-02-02T14:19:10Z</time>
      </trkpt>
      <trkpt lat="44.87913" lon="-0.60004">
        <ele>13</ele>
        <time>2022-02-02T14:19:20Z</time>
      </trkpt>
      <trkpt lat="44.87909" lon="-0.60017">
        <ele>13.6</ele>
        <time>2022-02-02T14:19:30Z</time>
      </trkpt>
      <trkpt lat="44.8791" lon="-0.6003">
        <ele>13.9</ele>
        <time>2022-02-02T14:19:39Z</time>
      </trkpt>
      <trkpt lat="44.87909" lon="-0.60045">
        <ele>14.2</ele>
        <time>2022-02-02T14:19:51Z</time>
      </trkpt>
      <trkpt lat="44.87908" lon="-0.60057">
        <ele>14.6</ele>
        <time>2022-02-02T14:19:59Z</time>
      </trkpt>
      <trkpt lat="44.87904" lon="-0.6007">
        <ele>15</ele>
        <time>2022-02-02T14:20:13Z</time>
      </trkpt>
      <trkpt lat="44.87898" lon="-0.60072">
        <ele>15.3</ele>
        <time>2022-02-02T14:20:28Z</time>
      </trkpt>
      <trkpt lat="44.87891" lon="-0.60078">
        <ele>17</ele>
        <time>2022-02-02T14:24:14Z</time>
      </trkpt>
      <trkpt lat="44.87893" lon="-0.60076">
        <ele>17</ele>
        <time>2022-02-02T14:24:25Z</time>
      </trkpt>
      <trkpt lat="44.879" lon="-0.60084">
        <ele>15.2</ele>
        <time>2022-02-02T14:26:04Z</time>
      </trkpt>
      <trkpt lat="44.879" lon="-0.6011">
        <ele>15.2</ele>
        <time>2022-02-02T14:26:36Z</time>
      </trkpt>
      <trkpt lat="44.87898" lon="-0.60124">
        <ele>15.2</ele>
        <time>2022-02-02T14:26:47Z</time>
      </trkpt>
      <trkpt lat="44.87894" lon="-0.60136">
        <ele>15.2</ele>
        <time>2022-02-02T14:27:01Z</time>
      </trkpt>
      <trkpt lat="44.8789" lon="-0.60141">
        <ele>15.2</ele>
        <time>2022-02-02T14:27:15Z</time>
      </trkpt>
      <trkpt lat="44.87895" lon="-0.6015">
        <ele>12.3</ele>
        <time>2022-02-02T14:27:29Z</time>
      </trkpt>
      <trkpt lat="44.87902" lon="-0.60155">
        <ele>12.1</ele>
        <time>2022-02-02T14:27:35Z</time>
      </trkpt>
      <trkpt lat="44.8791" lon="-0.6016">
        <ele>12</ele>
        <time>2022-02-02T14:27:42Z</time>
      </trkpt>
      <trkpt lat="44.87914" lon="-0.60172">
        <ele>11.9</ele>
        <time>2022-02-02T14:27:52Z</time>
      </trkpt>
      <trkpt lat="44.87915" lon="-0.60186">
        <ele>11.8</ele>
        <time>2022-02-02T14:28:03Z</time>
      </trkpt>
      <trkpt lat="44.87916" lon="-0.602">
        <ele>11.7</ele>
        <time>2022-02-02T14:28:11Z</time>
      </trkpt>
      <trkpt lat="44.87916" lon="-0.60214">
        <ele>11.5</ele>
        <time>2022-02-02T14:28:20Z</time>
      </trkpt>
      <trkpt lat="44.87917" lon="-0.60227">
        <ele>11.3</ele>
        <time>2022-02-02T14:28:29Z</time>
      </trkpt>
      <trkpt lat="44.87917" lon="-0.6024">
        <ele>11.1</ele>
        <time>2022-02-02T14:28:37Z</time>
      </trkpt>
      <trkpt lat="44.8792" lon="-0.60266">
        <ele>10.9</ele>
        <time>2022-02-02T14:29:01Z</time>
      </trkpt>
      <trkpt lat="44.87919" lon="-0.60278">
        <ele>10.8</ele>
        <time>2022-02-02T14:29:09Z</time>
      </trkpt>
      <trkpt lat="44.87918" lon="-0.60291">
        <ele>10.7</ele>
        <time>2022-02-02T14:29:16Z</time>
      </trkpt>
      <trkpt lat="44.87919" lon="-0.60305">
        <ele>10.6</ele>
        <time>2022-02-02T14:29:24Z</time>
      </trkpt>
      <trkpt lat="44.87919" lon="-0.60319">
        <ele>10.6</ele>
        <time>2022-02-02T14:29:32Z</time>
      </trkpt>
      <trkpt lat="44.87919" lon="-0.60318">
        <ele>10.5</ele>
        <time>2022-02-02T14:29:42Z</time>
      </trkpt>
      <trkpt lat="44.87911" lon="-0.60322">
        <ele>10</ele>
        <time>2022-02-02T14:30:16Z</time>
      </trkpt>
      <trkpt lat="44.87909" lon="-0.60323">
        <ele>10</ele>
        <time>2022-02-02T14:30:17Z</time>
      </trkpt>
      <trkpt lat="44.87909" lon="-0.60323">
        <ele>10</ele>
        <time>2022-02-02T14:30:27Z</time>
      </trkpt>
      <trkpt lat="44.87907" lon="-0.60334">
        <ele>10</ele>
        <time>2022-02-02T14:31:10Z</time>
      </trkpt>
      <trkpt lat="44.87906" lon="-0.60336">
        <ele>10</ele>
        <time>2022-02-02T14:31:11Z</time>
      </trkpt>
      <trkpt lat="44.87907" lon="-0.60347">
        <ele>10</ele>
        <time>2022-02-02T14:31:29Z</time>
      </trkpt>
      <trkpt lat="44.8791" lon="-0.6036">
        <ele>10.2</ele>
        <time>2022-02-02T14:31:40Z</time>
      </trkpt>
      <trkpt lat="44.87911" lon="-0.60363">
        <ele>10.4</ele>
        <time>2022-02-02T14:31:42Z</time>
      </trkpt>
      <trkpt lat="44.87912" lon="-0.60376">
        <ele>10.8</ele>
        <time>2022-02-02T14:31:50Z</time>
      </trkpt>
      <trkpt lat="44.87913" lon="-0.60389">
        <ele>11</ele>
        <time>2022-02-02T14:31:58Z</time>
      </trkpt>
      <trkpt lat="44.87916" lon="-0.60402">
        <ele>11.2</ele>
        <time>2022-02-02T14:32:06Z</time>
      </trkpt>
      <trkpt lat="44.8792" lon="-0.60414">
        <ele>11.4</ele>
        <time>2022-02-02T14:32:15Z</time>
      </trkpt>
      <trkpt lat="44.87925" lon="-0.60427">
        <ele>11.6</ele>
        <time>2022-02-02T14:32:22Z</time>
      </trkpt>
      <trkpt lat="44.8793" lon="-0.60439">
        <ele>11.9</ele>
        <time>2022-02-02T14:32:32Z</time>
      </trkpt>
      <trkpt lat="44.87932" lon="-0.60453">
        <ele>12.1</ele>
        <time>2022-02-02T14:32:39Z</time>
      </trkpt>
      <trkpt lat="44.87935" lon="-0.60465">
        <ele>12.3</ele>
        <time>2022-02-02T14:32:46Z</time>
      </trkpt>
      <trkpt lat="44.87935" lon="-0.60479">
        <ele>12.4</ele>
        <time>2022-02-02T14:32:54Z</time>
      </trkpt>
      <trkpt lat="44.87936" lon="-0.60492">
        <ele>12.4</ele>
        <time>2022-02-02T14:33:03Z</time>
      </trkpt>
      <trkpt lat="44.8794" lon="-0.60504">
        <ele>12.4</ele>
        <time>2022-02-02T14:33:11Z</time>
      </trkpt>
      <trkpt lat="44.87937" lon="-0.60517">
        <ele>12.3</ele>
        <time>2022-02-02T14:33:19Z</time>
      </trkpt>
      <trkpt lat="44.87931" lon="-0.60527">
        <ele>12.2</ele>
        <time>2022-02-02T14:33:27Z</time>
      </trkpt>
      <trkpt lat="44.87922" lon="-0.60527">
        <ele>12.1</ele>
        <time>2022-02-02T14:33:39Z</time>
      </trkpt>
      <trkpt lat="44.8792" lon="-0.60541">
        <ele>12.1</ele>
        <time>2022-02-02T14:33:53Z</time>
      </trkpt>
      <trkpt lat="44.87923" lon="-0.60553">
        <ele>12.2</ele>
        <time>2022-02-02T14:34:03Z</time>
      </trkpt>
      <trkpt lat="44.87929" lon="-0.60564">
        <ele>12.3</ele>
        <time>2022-02-02T14:34:13Z</time>
      </trkpt>
      <trkpt lat="44.87934" lon="-0.60577">
        <ele>12.4</ele>
        <time>2022-02-02T14:34:22Z</time>
      </trkpt>
      <trkpt lat="44.87936" lon="-0.6059">
        <ele>12.5</ele>
        <time>2022-02-02T14:34:32Z</time>
      </trkpt>
      <trkpt lat="44.87938" lon="-0.60603">
        <ele>12.5</ele>
        <time>2022-02-02T14:34:41Z</time>
      </trkpt>
      <trkpt lat="44.87945" lon="-0.60613">
        <ele>12.6</ele>
        <time>2022-02-02T14:34:49Z</time>
      </trkpt>
      <trkpt lat="44.8795" lon="-0.60623">
        <ele>12.8</ele>
        <time>2022-02-02T14:34:56Z</time>
      </trkpt>
      <trkpt lat="44.87952" lon="-0.60636">
        <ele>13</ele>
        <time>2022-02-02T14:35:04Z</time>
      </trkpt>
      <trkpt lat="44.87957" lon="-0.60647">
        <ele>13.2</ele>
        <time>2022-02-02T14:35:13Z</time>
      </trkpt>
      <trkpt lat="44.8796" lon="-0.60659">
        <ele>13.4</ele>
        <time>2022-02-02T14:35:21Z</time>
      </trkpt>
      <trkpt lat="44.87964" lon="-0.60672">
        <ele>13.5</ele>
        <time>2022-02-02T14:35:31Z</time>
      </trkpt>
      <trkpt lat="44.8797" lon="-0.60684">
        <ele>13.7</ele>
        <time>2022-02-02T14:35:39Z</time>
      </trkpt>
      <trkpt lat="44.87974" lon="-0.60696">
        <ele>14</ele>
        <time>2022-02-02T14:35:48Z</time>
      </trkpt>
      <trkpt lat="44.8798" lon="-0.60705">
        <ele>14.4</ele>
        <time>2022-02-02T14:35:57Z</time>
      </trkpt>
      <trkpt lat="44.87981" lon="-0.60719">
        <ele>14.7</ele>
        <time>2022-02-02T14:36:06Z</time>
      </trkpt>
      <trkpt lat="44.87987" lon="-0.60731">
        <ele>15.1</ele>
        <time>2022-02-02T14:36:15Z</time>
      </trkpt>
      <trkpt lat="44.87991" lon="-0.60744">
        <ele>15.5</ele>
        <time>2022-02-02T14:36:25Z</time>
      </trkpt>
      <trkpt lat="44.87995" lon="-0.60756">
        <ele>15.7</ele>
        <time>2022-02-02T14:36:34Z</time>
      </trkpt>
      <trkpt lat="44.87999" lon="-0.60768">
        <ele>16</ele>
        <time>2022-02-02T14:36:44Z</time>
      </trkpt>
      <trkpt lat="44.88005" lon="-0.60778">
        <ele>16.3</ele>
        <time>2022-02-02T14:36:52Z</time>
      </trkpt>
      <trkpt lat="44.8801" lon="-0.6079">
        <ele>16.5</ele>
        <time>2022-02-02T14:37:01Z</time>
      </trkpt>
      <trkpt lat="44.88012" lon="-0.60803">
        <ele>16.7</ele>
        <time>2022-02-02T14:37:10Z</time>
      </trkpt>
      <trkpt lat="44.88015" lon="-0.60815">
        <ele>16.9</ele>
        <time>2022-02-02T14:37:19Z</time>
      </trkpt>
      <trkpt lat="44.8802" lon="-0.60827">
        <ele>17</ele>
        <time>2022-02-02T14:37:29Z</time>
      </trkpt>
      <trkpt lat="44.88023" lon="-0.6084">
        <ele>17</ele>
        <time>2022-02-02T14:37:38Z</time>
      </trkpt>
      <trkpt lat="44.88027" lon="-0.60851">
        <ele>17</ele>
        <time>2022-02-02T14:37:46Z</time>
      </trkpt>
      <trkpt lat="44.88033" lon="-0.60863">
        <ele>17</ele>
        <time>2022-02-02T14:37:56Z</time>
      </trkpt>
      <trkpt lat="44.88037" lon="-0.60874">
        <ele>17</ele>
        <time>2022-02-02T14:38:07Z</time>
      </trkpt>
      <trkpt lat="44.8804" lon="-0.60887">
        <ele>17.1</ele>
        <time>2022-02-02T14:38:18Z</time>
      </trkpt>
      <trkpt lat="44.88043" lon="-0.60901">
        <ele>17.2</ele>
        <time>2022-02-02T14:38:27Z</time>
      </trkpt>
      <trkpt lat="44.88045" lon="-0.60914">
        <ele>17.3</ele>
        <time>2022-02-02T14:38:38Z</time>
      </trkpt>
      <trkpt lat="44.88042" lon="-0.60928">
        <ele>17.5</ele>
        <time>2022-02-02T14:38:46Z</time>
      </trkpt>
      <trkpt lat="44.88045" lon="-0.6094">
        <ele>17.6</ele>
        <time>2022-02-02T14:38:54Z</time>
      </trkpt>
      <trkpt lat="44.88047" lon="-0.60954">
        <ele>17.8</ele>
        <time>2022-02-02T14:39:03Z</time>
      </trkpt>
      <trkpt lat="44.88048" lon="-0.60968">
        <ele>18</ele>
        <time>2022-02-02T14:39:12Z</time>
      </trkpt>
      <trkpt lat="44.8805" lon="-0.60981">
        <ele>18.2</ele>
        <time>2022-02-02T14:39:19Z</time>
      </trkpt>
      <trkpt lat="44.88052" lon="-0.60996">
        <ele>18.4</ele>
        <time>2022-02-02T14:39:28Z</time>
      </trkpt>
      <trkpt lat="44.88053" lon="-0.61008">
        <ele>18.5</ele>
        <time>2022-02-02T14:39:35Z</time>
      </trkpt>
      <trkpt lat="44.88055" lon="-0.61022">
        <ele>18.6</ele>
        <time>2022-02-02T14:39:43Z</time>
      </trkpt>
      <trkpt lat="44.88048" lon="-0.61032">
        <ele>18.6</ele>
        <time>2022-02-02T14:39:52Z</time>
      </trkpt>
      <trkpt lat="44.88039" lon="-0.61033">
        <ele>18.6</ele>
        <time>2022-02-02T14:40:02Z</time>
      </trkpt>
      <trkpt lat="44.88029" lon="-0.61035">
        <ele>18.6</ele>
        <time>2022-02-02T14:40:10Z</time>
      </trkpt>
      <trkpt lat="44.8802" lon="-0.61037">
        <ele>18.5</ele>
        <time>2022-02-02T14:40:18Z</time>
      </trkpt>
      <trkpt lat="44.88011" lon="-0.61042">
        <ele>18.5</ele>
        <time>2022-02-02T14:40:28Z</time>
      </trkpt>
      <trkpt lat="44.88002" lon="-0.61046">
        <ele>18.3</ele>
        <time>2022-02-02T14:40:35Z</time>
      </trkpt>
      <trkpt lat="44.87992" lon="-0.61047">
        <ele>18.1</ele>
        <time>2022-02-02T14:40:44Z</time>
      </trkpt>
      <trkpt lat="44.87983" lon="-0.61047">
        <ele>17.9</ele>
        <time>2022-02-02T14:40:58Z</time>
      </trkpt>
      <trkpt lat="44.87979" lon="-0.61033">
        <ele>17.7</ele>
        <time>2022-02-02T14:41:07Z</time>
      </trkpt>
      <trkpt lat="44.87974" lon="-0.61022">
        <ele>17.5</ele>
        <time>2022-02-02T14:41:16Z</time>
      </trkpt>
      <trkpt lat="44.87966" lon="-0.61015">
        <ele>17.5</ele>
        <time>2022-02-02T14:41:26Z</time>
      </trkpt>
      <trkpt lat="44.87957" lon="-0.61016">
        <ele>17.4</ele>
        <time>2022-02-02T14:41:36Z</time>
      </trkpt>
      <trkpt lat="44.87948" lon="-0.61018">
        <ele>17.3</ele>
        <time>2022-02-02T14:41:44Z</time>
      </trkpt>
      <trkpt lat="44.87938" lon="-0.61019">
        <ele>17.2</ele>
        <time>2022-02-02T14:41:53Z</time>
      </trkpt>
      <trkpt lat="44.87928" lon="-0.61023">
        <ele>17.1</ele>
        <time>2022-02-02T14:42:00Z</time>
      </trkpt>
      <trkpt lat="44.87919" lon="-0.61023">
        <ele>17</ele>
        <time>2022-02-02T14:42:09Z</time>
      </trkpt>
      <trkpt lat="44.87909" lon="-0.61019">
        <ele>17</ele>
        <time>2022-02-02T14:42:18Z</time>
      </trkpt>
      <trkpt lat="44.879" lon="-0.61017">
        <ele>17</ele>
        <time>2022-02-02T14:42:26Z</time>
      </trkpt>
      <trkpt lat="44.8789" lon="-0.61018">
        <ele>17</ele>
        <time>2022-02-02T14:42:34Z</time>
      </trkpt>
      <trkpt lat="44.8788" lon="-0.61016">
        <ele>17</ele>
        <time>2022-02-02T14:42:41Z</time>
      </trkpt>
      <trkpt lat="44.8787" lon="-0.6102">
        <ele>17</ele>
        <time>2022-02-02T14:42:52Z</time>
      </trkpt>
      <trkpt lat="44.8786" lon="-0.61023">
        <ele>16.9</ele>
        <time>2022-02-02T14:43:00Z</time>
      </trkpt>
      <trkpt lat="44.87851" lon="-0.61026">
        <ele>16.8</ele>
        <time>2022-02-02T14:43:09Z</time>
      </trkpt>
      <trkpt lat="44.8784" lon="-0.61028">
        <ele>16.7</ele>
        <time>2022-02-02T14:43:19Z</time>
      </trkpt>
      <trkpt lat="44.8783" lon="-0.61031">
        <ele>16.5</ele>
        <time>2022-02-02T14:43:27Z</time>
      </trkpt>
      <trkpt lat="44.87821" lon="-0.61036">
        <ele>16.4</ele>
        <time>2022-02-02T14:43:35Z</time>
      </trkpt>
      <trkpt lat="44.87812" lon="-0.61041">
        <ele>16.2</ele>
        <time>2022-02-02T14:43:44Z</time>
      </trkpt>
      <trkpt lat="44.87803" lon="-0.61045">
        <ele>16</ele>
        <time>2022-02-02T14:43:53Z</time>
      </trkpt>
      <trkpt lat="44.87794" lon="-0.61048">
        <ele>15.8</ele>
        <time>2022-02-02T14:44:01Z</time>
      </trkpt>
      <trkpt lat="44.87785" lon="-0.61052">
        <ele>15.5</ele>
        <time>2022-02-02T14:44:09Z</time>
      </trkpt>
      <trkpt lat="44.87776" lon="-0.61059">
        <ele>15.3</ele>
        <time>2022-02-02T14:44:18Z</time>
      </trkpt>
      <trkpt lat="44.87768" lon="-0.61066">
        <ele>15</ele>
        <time>2022-02-02T14:44:26Z</time>
      </trkpt>
      <trkpt lat="44.8776" lon="-0.61073">
        <ele>14.7</ele>
        <time>2022-02-02T14:44:34Z</time>
      </trkpt>
      <trkpt lat="44.87751" lon="-0.61077">
        <ele>14.5</ele>
        <time>2022-02-02T14:44:44Z</time>
      </trkpt>
      <trkpt lat="44.87746" lon="-0.61066">
        <ele>14.2</ele>
        <time>2022-02-02T14:44:50Z</time>
      </trkpt>
      <trkpt lat="44.87739" lon="-0.61055">
        <ele>14.1</ele>
        <time>2022-02-02T14:44:56Z</time>
      </trkpt>
      <trkpt lat="44.87733" lon="-0.61044">
        <ele>14</ele>
        <time>2022-02-02T14:45:05Z</time>
      </trkpt>
      <trkpt lat="44.8773" lon="-0.61033">
        <ele>13.9</ele>
        <time>2022-02-02T14:45:14Z</time>
      </trkpt>
      <trkpt lat="44.87725" lon="-0.6102">
        <ele>13.8</ele>
        <time>2022-02-02T14:45:22Z</time>
      </trkpt>
      <trkpt lat="44.87723" lon="-0.61032">
        <ele>13.8</ele>
        <time>2022-02-02T14:45:57Z</time>
      </trkpt>
      <trkpt lat="44.87725" lon="-0.61046">
        <ele>13.9</ele>
        <time>2022-02-02T14:46:08Z</time>
      </trkpt>
      <trkpt lat="44.87726" lon="-0.61058">
        <ele>14</ele>
        <time>2022-02-02T14:46:16Z</time>
      </trkpt>
      <trkpt lat="44.87727" lon="-0.61073">
        <ele>14.1</ele>
        <time>2022-02-02T14:46:24Z</time>
      </trkpt>
      <trkpt lat="44.87729" lon="-0.61086">
        <ele>14.4</ele>
        <time>2022-02-02T14:46:33Z</time>
      </trkpt>
      <trkpt lat="44.87729" lon="-0.61099">
        <ele>14.6</ele>
        <time>2022-02-02T14:46:41Z</time>
      </trkpt>
      <trkpt lat="44.87727" lon="-0.61113">
        <ele>15</ele>
        <time>2022-02-02T14:46:49Z</time>
      </trkpt>
      <trkpt lat="44.87728" lon="-0.61126">
        <ele>15.3</ele>
        <time>2022-02-02T14:46:57Z</time>
      </trkpt>
      <trkpt lat="44.87727" lon="-0.61142">
        <ele>15.5</ele>
        <time>2022-02-02T14:47:07Z</time>
      </trkpt>
      <trkpt lat="44.87728" lon="-0.61155">
        <ele>15.8</ele>
        <time>2022-02-02T14:47:14Z</time>
      </trkpt>
      <trkpt lat="44.87729" lon="-0.61167">
        <ele>16.1</ele>
        <time>2022-02-02T14:47:22Z</time>
      </trkpt>
      <trkpt lat="44.87728" lon="-0.61182">
        <ele>16.3</ele>
        <time>2022-02-02T14:47:30Z</time>
      </trkpt>
      <trkpt lat="44.87728" lon="-0.61195">
        <ele>16.5</ele>
        <time>2022-02-02T14:47:39Z</time>
      </trkpt>
      <trkpt lat="44.87721" lon="-0.61203">
        <ele>16.9</ele>
        <time>2022-02-02T14:47:48Z</time>
      </trkpt>
      <trkpt lat="44.87711" lon="-0.61207">
        <ele>17.1</ele>
        <time>2022-02-02T14:47:57Z</time>
      </trkpt>
      <trkpt lat="44.87702" lon="-0.61212">
        <ele>17.2</ele>
        <time>2022-02-02T14:48:08Z</time>
      </trkpt>
      <trkpt lat="44.87693" lon="-0.61217">
        <ele>17.4</ele>
        <time>2022-02-02T14:48:15Z</time>
      </trkpt>
      <trkpt lat="44.87684" lon="-0.61222">
        <ele>17.4</ele>
        <time>2022-02-02T14:48:23Z</time>
      </trkpt>
      <trkpt lat="44.87677" lon="-0.61229">
        <ele>17.5</ele>
        <time>2022-02-02T14:48:39Z</time>
      </trkpt>
      <trkpt lat="44.87669" lon="-0.61236">
        <ele>20.2</ele>
        <time>2022-02-02T14:48:51Z</time>
      </trkpt>
      <trkpt lat="44.87668" lon="-0.61236">
        <ele>20.2</ele>
        <time>2022-02-02T14:48:53Z</time>
      </trkpt>
      <trkpt lat="44.87659" lon="-0.61241">
        <ele>20.2</ele>
        <time>2022-02-02T14:49:01Z</time>
      </trkpt>
      <trkpt lat="44.87651" lon="-0.61246">
        <ele>20.2</ele>
        <time>2022-02-02T14:49:10Z</time>
      </trkpt>
      <trkpt lat="44.8765" lon="-0.61246">
        <ele>20.2</ele>
        <time>2022-02-02T14:49:25Z</time>
      </trkpt>
      <trkpt lat="44.87641" lon="-0.61247">
        <ele>23.7</ele>
        <time>2022-02-02T14:49:41Z</time>
      </trkpt>
      <trkpt lat="44.87632" lon="-0.61246">
        <ele>23.7</ele>
        <time>2022-02-02T14:49:52Z</time>
      </trkpt>
      <trkpt lat="44.87622" lon="-0.61249">
        <ele>23.8</ele>
        <time>2022-02-02T14:50:00Z</time>
      </trkpt>
      <trkpt lat="44.87615" lon="-0.61257">
        <ele>23.7</ele>
        <time>2022-02-02T14:50:09Z</time>
      </trkpt>
      <trkpt lat="44.87604" lon="-0.6126">
        <ele>23.6</ele>
        <time>2022-02-02T14:50:20Z</time>
      </trkpt>
      <trkpt lat="44.87597" lon="-0.61267">
        <ele>23.5</ele>
        <time>2022-02-02T14:50:27Z</time>
      </trkpt>
      <trkpt lat="44.87588" lon="-0.61273">
        <ele>23.5</ele>
        <time>2022-02-02T14:50:33Z</time>
      </trkpt>
      <trkpt lat="44.8758" lon="-0.6128">
        <ele>23.5</ele>
        <time>2022-02-02T14:50:41Z</time>
      </trkpt>
      <trkpt lat="44.87571" lon="-0.61285">
        <ele>23.5</ele>
        <time>2022-02-02T14:50:51Z</time>
      </trkpt>
      <trkpt lat="44.87563" lon="-0.61291">
        <ele>23.4</ele>
        <time>2022-02-02T14:51:00Z</time>
      </trkpt>
      <trkpt lat="44.87555" lon="-0.61298">
        <ele>23.3</ele>
        <time>2022-02-02T14:51:07Z</time>
      </trkpt>
      <trkpt lat="44.87546" lon="-0.61305">
        <ele>23.2</ele>
        <time>2022-02-02T14:51:16Z</time>
      </trkpt>
      <trkpt lat="44.87536" lon="-0.61309">
        <ele>23.1</ele>
        <time>2022-02-02T14:51:31Z</time>
      </trkpt>
      <trkpt lat="44.87528" lon="-0.61315">
        <ele>22.9</ele>
        <time>2022-02-02T14:51:40Z</time>
      </trkpt>
      <trkpt lat="44.87519" lon="-0.61318">
        <ele>22.8</ele>
        <time>2022-02-02T14:51:47Z</time>
      </trkpt>
      <trkpt lat="44.87512" lon="-0.61327">
        <ele>22.6</ele>
        <time>2022-02-02T14:51:57Z</time>
      </trkpt>
      <trkpt lat="44.87503" lon="-0.61331">
        <ele>22.5</ele>
        <time>2022-02-02T14:52:06Z</time>
      </trkpt>
      <trkpt lat="44.87494" lon="-0.61336">
        <ele>22.2</ele>
        <time>2022-02-02T14:52:16Z</time>
      </trkpt>
      <trkpt lat="44.87485" lon="-0.61342">
        <ele>21.9</ele>
        <time>2022-02-02T14:52:26Z</time>
      </trkpt>
      <trkpt lat="44.87476" lon="-0.61348">
        <ele>21.6</ele>
        <time>2022-02-02T14:52:35Z</time>
      </trkpt>
      <trkpt lat="44.87468" lon="-0.61353">
        <ele>21.5</ele>
        <time>2022-02-02T14:52:43Z</time>
      </trkpt>
      <trkpt lat="44.87459" lon="-0.61359">
        <ele>21.3</ele>
        <time>2022-02-02T14:52:51Z</time>
      </trkpt>
      <trkpt lat="44.8745" lon="-0.61363">
        <ele>21.1</ele>
        <time>2022-02-02T14:52:59Z</time>
      </trkpt>
      <trkpt lat="44.87441" lon="-0.6137">
        <ele>20.9</ele>
        <time>2022-02-02T14:53:07Z</time>
      </trkpt>
      <trkpt lat="44.87433" lon="-0.61376">
        <ele>20.9</ele>
        <time>2022-02-02T14:53:16Z</time>
      </trkpt>
      <trkpt lat="44.87424" lon="-0.61382">
        <ele>20.9</ele>
        <time>2022-02-02T14:53:24Z</time>
      </trkpt>
      <trkpt lat="44.87416" lon="-0.61387">
        <ele>20.9</ele>
        <time>2022-02-02T14:53:33Z</time>
      </trkpt>
      <trkpt lat="44.87406" lon="-0.61388">
        <ele>20.9</ele>
        <time>2022-02-02T14:53:43Z</time>
      </trkpt>
      <trkpt lat="44.87399" lon="-0.61398">
        <ele>21</ele>
        <time>2022-02-02T14:53:56Z</time>
      </trkpt>
      <trkpt lat="44.87393" lon="-0.61408">
        <ele>21</ele>
        <time>2022-02-02T14:54:07Z</time>
      </trkpt>
      <trkpt lat="44.87395" lon="-0.61421">
        <ele>21</ele>
        <time>2022-02-02T14:54:16Z</time>
      </trkpt>
      <trkpt lat="44.87399" lon="-0.61433">
        <ele>20.9</ele>
        <time>2022-02-02T14:54:26Z</time>
      </trkpt>
      <trkpt lat="44.87406" lon="-0.61444">
        <ele>20.8</ele>
        <time>2022-02-02T14:54:34Z</time>
      </trkpt>
      <trkpt lat="44.87411" lon="-0.61454">
        <ele>20.7</ele>
        <time>2022-02-02T14:54:42Z</time>
      </trkpt>
      <trkpt lat="44.87417" lon="-0.61466">
        <ele>20.7</ele>
        <time>2022-02-02T14:54:51Z</time>
      </trkpt>
      <trkpt lat="44.87423" lon="-0.61476">
        <ele>20.6</ele>
        <time>2022-02-02T14:55:02Z</time>
      </trkpt>
      <trkpt lat="44.8743" lon="-0.61485">
        <ele>20.5</ele>
        <time>2022-02-02T14:55:18Z</time>
      </trkpt>
      <trkpt lat="44.87435" lon="-0.61496">
        <ele>20.5</ele>
        <time>2022-02-02T14:55:27Z</time>
      </trkpt>
      <trkpt lat="44.8744" lon="-0.61507">
        <ele>20.5</ele>
        <time>2022-02-02T14:55:37Z</time>
      </trkpt>
      <trkpt lat="44.87447" lon="-0.61517">
        <ele>20.5</ele>
        <time>2022-02-02T14:55:46Z</time>
      </trkpt>
      <trkpt lat="44.87456" lon="-0.61511">
        <ele>20.5</ele>
        <time>2022-02-02T14:55:57Z</time>
      </trkpt>
      <trkpt lat="44.87464" lon="-0.61505">
        <ele>20.5</ele>
        <time>2022-02-02T14:56:09Z</time>
      </trkpt>
      <trkpt lat="44.87473" lon="-0.615">
        <ele>20.6</ele>
        <time>2022-02-02T14:56:19Z</time>
      </trkpt>
      <trkpt lat="44.87482" lon="-0.61498">
        <ele>20.7</ele>
        <time>2022-02-02T14:56:29Z</time>
      </trkpt>
      <trkpt lat="44.87492" lon="-0.615">
        <ele>20.8</ele>
        <time>2022-02-02T14:56:35Z</time>
      </trkpt>
      <trkpt lat="44.87498" lon="-0.61511">
        <ele>20.8</ele>
        <time>2022-02-02T14:56:43Z</time>
      </trkpt>
      <trkpt lat="44.87503" lon="-0.61522">
        <ele>20.7</ele>
        <time>2022-02-02T14:56:52Z</time>
      </trkpt>
      <trkpt lat="44.87508" lon="-0.61534">
        <ele>20.6</ele>
        <time>2022-02-02T14:57:00Z</time>
      </trkpt>
      <trkpt lat="44.87513" lon="-0.61545">
        <ele>20.5</ele>
        <time>2022-02-02T14:57:08Z</time>
      </trkpt>
      <trkpt lat="44.87517" lon="-0.61557">
        <ele>20.5</ele>
        <time>2022-02-02T14:57:16Z</time>
      </trkpt>
      <trkpt lat="44.8752" lon="-0.61569">
        <ele>20.5</ele>
        <time>2022-02-02T14:57:24Z</time>
      </trkpt>
      <trkpt lat="44.87526" lon="-0.61581">
        <ele>20.5</ele>
        <time>2022-02-02T14:57:32Z</time>
      </trkpt>
      <trkpt lat="44.8753" lon="-0.61593">
        <ele>20.4</ele>
        <time>2022-02-02T14:57:42Z</time>
      </trkpt>
      <trkpt lat="44.87533" lon="-0.61608">
        <ele>20.3</ele>
        <time>2022-02-02T14:57:54Z</time>
      </trkpt>
      <trkpt lat="44.87542" lon="-0.6162">
        <ele>20.1</ele>
        <time>2022-02-02T14:58:26Z</time>
      </trkpt>
      <trkpt lat="44.8755" lon="-0.61617">
        <ele>19.9</ele>
        <time>2022-02-02T14:58:35Z</time>
      </trkpt>
      <trkpt lat="44.87559" lon="-0.61612">
        <ele>19.7</ele>
        <time>2022-02-02T14:58:45Z</time>
      </trkpt>
      <trkpt lat="44.87568" lon="-0.61613">
        <ele>19.6</ele>
        <time>2022-02-02T14:58:54Z</time>
      </trkpt>
      <trkpt lat="44.87576" lon="-0.61623">
        <ele>19.6</ele>
        <time>2022-02-02T14:59:02Z</time>
      </trkpt>
      <trkpt lat="44.87581" lon="-0.61634">
        <ele>19.6</ele>
        <time>2022-02-02T14:59:11Z</time>
      </trkpt>
      <trkpt lat="44.87587" lon="-0.61644">
        <ele>19.6</ele>
        <time>2022-02-02T14:59:22Z</time>
      </trkpt>
      <trkpt lat="44.87593" lon="-0.61657">
        <ele>19.5</ele>
        <time>2022-02-02T14:59:30Z</time>
      </trkpt>
      <trkpt lat="44.87599" lon="-0.61668">
        <ele>19.5</ele>
        <time>2022-02-02T14:59:40Z</time>
      </trkpt>
      <trkpt lat="44.87604" lon="-0.61678">
        <ele>19.3</ele>
        <time>2022-02-02T14:59:48Z</time>
      </trkpt>
      <trkpt lat="44.8761" lon="-0.6169">
        <ele>19.1</ele>
        <time>2022-02-02T14:59:59Z</time>
      </trkpt>
      <trkpt lat="44.87616" lon="-0.61699">
        <ele>19</ele>
        <time>2022-02-02T15:00:07Z</time>
      </trkpt>
      <trkpt lat="44.87621" lon="-0.61709">
        <ele>18.8</ele>
        <time>2022-02-02T15:00:15Z</time>
      </trkpt>
      <trkpt lat="44.87626" lon="-0.61721">
        <ele>18.6</ele>
        <time>2022-02-02T15:00:24Z</time>
      </trkpt>
      <trkpt lat="44.87631" lon="-0.61731">
        <ele>18.4</ele>
        <time>2022-02-02T15:00:32Z</time>
      </trkpt>
      <trkpt lat="44.87637" lon="-0.61741">
        <ele>18</ele>
        <time>2022-02-02T15:00:41Z</time>
      </trkpt>
      <trkpt lat="44.8764" lon="-0.61755">
        <ele>17.6</ele>
        <time>2022-02-02T15:00:50Z</time>
      </trkpt>
      <trkpt lat="44.87643" lon="-0.61768">
        <ele>17.3</ele>
        <time>2022-02-02T15:00:59Z</time>
      </trkpt>
      <trkpt lat="44.87646" lon="-0.61781">
        <ele>17.1</ele>
        <time>2022-02-02T15:01:08Z</time>
      </trkpt>
      <trkpt lat="44.87647" lon="-0.61794">
        <ele>16.9</ele>
        <time>2022-02-02T15:01:19Z</time>
      </trkpt>
      <trkpt lat="44.87646" lon="-0.61807">
        <ele>16.8</ele>
        <time>2022-02-02T15:01:27Z</time>
      </trkpt>
      <trkpt lat="44.87646" lon="-0.61821">
        <ele>16.7</ele>
        <time>2022-02-02T15:01:35Z</time>
      </trkpt>
      <trkpt lat="44.87653" lon="-0.61831">
        <ele>16.7</ele>
        <time>2022-02-02T15:01:46Z</time>
      </trkpt>
      <trkpt lat="44.87652" lon="-0.61845">
        <ele>16.8</ele>
        <time>2022-02-02T15:01:55Z</time>
      </trkpt>
      <trkpt lat="44.87651" lon="-0.61859">
        <ele>16.9</ele>
        <time>2022-02-02T15:02:04Z</time>
      </trkpt>
      <trkpt lat="44.87648" lon="-0.61872">
        <ele>17.2</ele>
        <time>2022-02-02T15:02:13Z</time>
      </trkpt>
      <trkpt lat="44.87644" lon="-0.61883">
        <ele>17.5</ele>
        <time>2022-02-02T15:02:22Z</time>
      </trkpt>
      <trkpt lat="44.87642" lon="-0.61897">
        <ele>17.7</ele>
        <time>2022-02-02T15:02:30Z</time>
      </trkpt>
      <trkpt lat="44.87637" lon="-0.61908">
        <ele>18</ele>
        <time>2022-02-02T15:02:37Z</time>
      </trkpt>
      <trkpt lat="44.87634" lon="-0.6192">
        <ele>18.2</ele>
        <time>2022-02-02T15:02:46Z</time>
      </trkpt>
      <trkpt lat="44.87629" lon="-0.61932">
        <ele>18.4</ele>
        <time>2022-02-02T15:02:55Z</time>
      </trkpt>
      <trkpt lat="44.87625" lon="-0.61944">
        <ele>18.6</ele>
        <time>2022-02-02T15:03:04Z</time>
      </trkpt>
      <trkpt lat="44.87619" lon="-0.61954">
        <ele>18.9</ele>
        <time>2022-02-02T15:03:14Z</time>
      </trkpt>
      <trkpt lat="44.87612" lon="-0.61964">
        <ele>19.1</ele>
        <time>2022-02-02T15:03:22Z</time>
      </trkpt>
      <trkpt lat="44.87605" lon="-0.61972">
        <ele>19.2</ele>
        <time>2022-02-02T15:03:30Z</time>
      </trkpt>
      <trkpt lat="44.876" lon="-0.61984">
        <ele>19.3</ele>
        <time>2022-02-02T15:03:37Z</time>
      </trkpt>
      <trkpt lat="44.87593" lon="-0.61993">
        <ele>19.3</ele>
        <time>2022-02-02T15:03:47Z</time>
      </trkpt>
      <trkpt lat="44.87586" lon="-0.62002">
        <ele>19.2</ele>
        <time>2022-02-02T15:03:54Z</time>
      </trkpt>
      <trkpt lat="44.87578" lon="-0.62007">
        <ele>19.1</ele>
        <time>2022-02-02T15:04:02Z</time>
      </trkpt>
      <trkpt lat="44.87572" lon="-0.62018">
        <ele>18.9</ele>
        <time>2022-02-02T15:04:12Z</time>
      </trkpt>
      <trkpt lat="44.87566" lon="-0.62028">
        <ele>18.7</ele>
        <time>2022-02-02T15:04:22Z</time>
      </trkpt>
      <trkpt lat="44.87568" lon="-0.62041">
        <ele>18.5</ele>
        <time>2022-02-02T15:04:30Z</time>
      </trkpt>
      <trkpt lat="44.87575" lon="-0.62049">
        <ele>18.1</ele>
        <time>2022-02-02T15:04:38Z</time>
      </trkpt>
      <trkpt lat="44.87584" lon="-0.62055">
        <ele>17.8</ele>
        <time>2022-02-02T15:04:47Z</time>
      </trkpt>
      <trkpt lat="44.8759" lon="-0.62065">
        <ele>17.6</ele>
        <time>2022-02-02T15:04:56Z</time>
      </trkpt>
      <trkpt lat="44.87596" lon="-0.62075">
        <ele>17.5</ele>
        <time>2022-02-02T15:05:04Z</time>
      </trkpt>
      <trkpt lat="44.87602" lon="-0.62085">
        <ele>17.5</ele>
        <time>2022-02-02T15:05:14Z</time>
      </trkpt>
      <trkpt lat="44.8761" lon="-0.62095">
        <ele>17.6</ele>
        <time>2022-02-02T15:05:22Z</time>
      </trkpt>
      <trkpt lat="44.87617" lon="-0.62103">
        <ele>17.9</ele>
        <time>2022-02-02T15:05:29Z</time>
      </trkpt>
      <trkpt lat="44.87624" lon="-0.62112">
        <ele>18.4</ele>
        <time>2022-02-02T15:05:37Z</time>
      </trkpt>
      <trkpt lat="44.87624" lon="-0.62126">
        <ele>19</ele>
        <time>2022-02-02T15:05:44Z</time>
      </trkpt>
      <trkpt lat="44.87619" lon="-0.62137">
        <ele>19.8</ele>
        <time>2022-02-02T15:05:52Z</time>
      </trkpt>
      <trkpt lat="44.87615" lon="-0.62149">
        <ele>21</ele>
        <time>2022-02-02T15:06:05Z</time>
      </trkpt>
      <trkpt lat="44.87615" lon="-0.62163">
        <ele>22.4</ele>
        <time>2022-02-02T15:06:17Z</time>
      </trkpt>
      <trkpt lat="44.87606" lon="-0.62188">
        <ele>23.6</ele>
        <time>2022-02-02T15:06:41Z</time>
      </trkpt>
      <trkpt lat="44.87608" lon="-0.62201">
        <ele>24.8</ele>
        <time>2022-02-02T15:06:52Z</time>
      </trkpt>
      <trkpt lat="44.87602" lon="-0.62209">
        <ele>25.9</ele>
        <time>2022-02-02T15:07:03Z</time>
      </trkpt>
      <trkpt lat="44.87592" lon="-0.62211">
        <ele>26.8</ele>
        <time>2022-02-02T15:07:10Z</time>
      </trkpt>
      <trkpt lat="44.87584" lon="-0.62218">
        <ele>27.5</ele>
        <time>2022-02-02T15:07:18Z</time>
      </trkpt>
      <trkpt lat="44.87575" lon="-0.62216">
        <ele>28</ele>
        <time>2022-02-02T15:07:25Z</time>
      </trkpt>
      <trkpt lat="44.87566" lon="-0.62216">
        <ele>28.5</ele>
        <time>2022-02-02T15:07:33Z</time>
      </trkpt>
      <trkpt lat="44.87557" lon="-0.62213">
        <ele>29</ele>
        <time>2022-02-02T15:07:41Z</time>
      </trkpt>
      <trkpt lat="44.87548" lon="-0.6221">
        <ele>29.4</ele>
        <time>2022-02-02T15:07:50Z</time>
      </trkpt>
      <trkpt lat="44.87538" lon="-0.6221">
        <ele>29.4</ele>
        <time>2022-02-02T15:08:01Z</time>
      </trkpt>
      <trkpt lat="44.87533" lon="-0.62215">
        <ele>29.2</ele>
        <time>2022-02-02T15:08:20Z</time>
      </trkpt>
      <trkpt lat="44.87525" lon="-0.62216">
        <ele>26.3</ele>
        <time>2022-02-02T15:09:40Z</time>
      </trkpt>
      <trkpt lat="44.87524" lon="-0.62216">
        <ele>26.3</ele>
        <time>2022-02-02T15:09:41Z</time>
      </trkpt>
      <trkpt lat="44.8752" lon="-0.62217">
        <ele>26.3</ele>
        <time>2022-02-02T15:09:51Z</time>
      </trkpt>
      <trkpt lat="44.87523" lon="-0.62229">
        <ele>26.5</ele>
        <time>2022-02-02T15:10:01Z</time>
      </trkpt>
      <trkpt lat="44.87524" lon="-0.6223">
        <ele>26.3</ele>
        <time>2022-02-02T15:10:03Z</time>
      </trkpt>
      <trkpt lat="44.87531" lon="-0.62239">
        <ele>26</ele>
        <time>2022-02-02T15:10:10Z</time>
      </trkpt>
      <trkpt lat="44.87534" lon="-0.62253">
        <ele>25.8</ele>
        <time>2022-02-02T15:10:19Z</time>
      </trkpt>
      <trkpt lat="44.87536" lon="-0.62265">
        <ele>25.6</ele>
        <time>2022-02-02T15:10:29Z</time>
      </trkpt>
      <trkpt lat="44.87536" lon="-0.62279">
        <ele>25.5</ele>
        <time>2022-02-02T15:10:35Z</time>
      </trkpt>
      <trkpt lat="44.87538" lon="-0.62292">
        <ele>25.2</ele>
        <time>2022-02-02T15:10:43Z</time>
      </trkpt>
      <trkpt lat="44.87538" lon="-0.62305">
        <ele>24.9</ele>
        <time>2022-02-02T15:10:52Z</time>
      </trkpt>
      <trkpt lat="44.87538" lon="-0.62317">
        <ele>24.6</ele>
        <time>2022-02-02T15:10:59Z</time>
      </trkpt>
      <trkpt lat="44.87535" lon="-0.6233">
        <ele>24.3</ele>
        <time>2022-02-02T15:11:08Z</time>
      </trkpt>
      <trkpt lat="44.87531" lon="-0.62342">
        <ele>24</ele>
        <time>2022-02-02T15:11:18Z</time>
      </trkpt>
      <trkpt lat="44.87529" lon="-0.62355">
        <ele>23.8</ele>
        <time>2022-02-02T15:11:31Z</time>
      </trkpt>
      <trkpt lat="44.87526" lon="-0.62369">
        <ele>23.6</ele>
        <time>2022-02-02T15:11:44Z</time>
      </trkpt>
      <trkpt lat="44.87523" lon="-0.62382">
        <ele>23.5</ele>
        <time>2022-02-02T15:11:52Z</time>
      </trkpt>
      <trkpt lat="44.8752" lon="-0.62395">
        <ele>23.3</ele>
        <time>2022-02-02T15:12:00Z</time>
      </trkpt>
      <trkpt lat="44.87514" lon="-0.62405">
        <ele>23.1</ele>
        <time>2022-02-02T15:12:08Z</time>
      </trkpt>
      <trkpt lat="44.87511" lon="-0.62417">
        <ele>22.9</ele>
        <time>2022-02-02T15:12:18Z</time>
      </trkpt>
      <trkpt lat="44.87506" lon="-0.62428">
        <ele>22.7</ele>
        <time>2022-02-02T15:12:26Z</time>
      </trkpt>
      <trkpt lat="44.87504" lon="-0.62441">
        <ele>22.5</ele>
        <time>2022-02-02T15:12:33Z</time>
      </trkpt>
      <trkpt lat="44.87501" lon="-0.62454">
        <ele>22.2</ele>
        <time>2022-02-02T15:12:41Z</time>
      </trkpt>
      <trkpt lat="44.87497" lon="-0.62466">
        <ele>22</ele>
        <time>2022-02-02T15:12:50Z</time>
      </trkpt>
      <trkpt lat="44.87493" lon="-0.62478">
        <ele>21.8</ele>
        <time>2022-02-02T15:13:00Z</time>
      </trkpt>
      <trkpt lat="44.87488" lon="-0.62489">
        <ele>21.6</ele>
        <time>2022-02-02T15:13:05Z</time>
      </trkpt>
      <trkpt lat="44.87486" lon="-0.62502">
        <ele>21.5</ele>
        <time>2022-02-02T15:13:13Z</time>
      </trkpt>
      <trkpt lat="44.87484" lon="-0.62516">
        <ele>21.4</ele>
        <time>2022-02-02T15:13:22Z</time>
      </trkpt>
      <trkpt lat="44.8748" lon="-0.62528">
        <ele>21.2</ele>
        <time>2022-02-02T15:13:31Z</time>
      </trkpt>
      <trkpt lat="44.87478" lon="-0.6254">
        <ele>21</ele>
        <time>2022-02-02T15:13:39Z</time>
      </trkpt>
      <trkpt lat="44.87473" lon="-0.62553">
        <ele>20.7</ele>
        <time>2022-02-02T15:13:48Z</time>
      </trkpt>
      <trkpt lat="44.87474" lon="-0.62565">
        <ele>20.4</ele>
        <time>2022-02-02T15:13:55Z</time>
      </trkpt>
      <trkpt lat="44.8747" lon="-0.62579">
        <ele>20.1</ele>
        <time>2022-02-02T15:14:05Z</time>
      </trkpt>
      <trkpt lat="44.87468" lon="-0.62592">
        <ele>19.8</ele>
        <time>2022-02-02T15:14:13Z</time>
      </trkpt>
      <trkpt lat="44.87462" lon="-0.62603">
        <ele>19.5</ele>
        <time>2022-02-02T15:14:22Z</time>
      </trkpt>
      <trkpt lat="44.87459" lon="-0.62617">
        <ele>19.1</ele>
        <time>2022-02-02T15:14:33Z</time>
      </trkpt>
      <trkpt lat="44.87461" lon="-0.62629">
        <ele>18.7</ele>
        <time>2022-02-02T15:14:42Z</time>
      </trkpt>
      <trkpt lat="44.87461" lon="-0.62642">
        <ele>18.4</ele>
        <time>2022-02-02T15:14:51Z</time>
      </trkpt>
      <trkpt lat="44.87458" lon="-0.62655">
        <ele>18.1</ele>
        <time>2022-02-02T15:15:01Z</time>
      </trkpt>
      <trkpt lat="44.87454" lon="-0.62669">
        <ele>17.9</ele>
        <time>2022-02-02T15:15:11Z</time>
      </trkpt>
      <trkpt lat="44.87448" lon="-0.62678">
        <ele>17.7</ele>
        <time>2022-02-02T15:15:22Z</time>
      </trkpt>
      <trkpt lat="44.87438" lon="-0.62683">
        <ele>17.6</ele>
        <time>2022-02-02T15:15:33Z</time>
      </trkpt>
      <trkpt lat="44.87431" lon="-0.6269">
        <ele>17.6</ele>
        <time>2022-02-02T15:15:43Z</time>
      </trkpt>
      <trkpt lat="44.87424" lon="-0.627">
        <ele>17.5</ele>
        <time>2022-02-02T15:15:54Z</time>
      </trkpt>
      <trkpt lat="44.87416" lon="-0.62708">
        <ele>17.4</ele>
        <time>2022-02-02T15:16:03Z</time>
      </trkpt>
      <trkpt lat="44.87408" lon="-0.62716">
        <ele>17.3</ele>
        <time>2022-02-02T15:16:12Z</time>
      </trkpt>
      <trkpt lat="44.87401" lon="-0.62725">
        <ele>17.1</ele>
        <time>2022-02-02T15:16:22Z</time>
      </trkpt>
      <trkpt lat="44.87392" lon="-0.62728">
        <ele>16.8</ele>
        <time>2022-02-02T15:16:32Z</time>
      </trkpt>
      <trkpt lat="44.87383" lon="-0.62732">
        <ele>16.8</ele>
        <time>2022-02-02T15:16:41Z</time>
      </trkpt>
      <trkpt lat="44.87375" lon="-0.62737">
        <ele>16.7</ele>
        <time>2022-02-02T15:16:51Z</time>
      </trkpt>
      <trkpt lat="44.87365" lon="-0.6274">
        <ele>16.5</ele>
        <time>2022-02-02T15:17:01Z</time>
      </trkpt>
      <trkpt lat="44.87355" lon="-0.62745">
        <ele>16.3</ele>
        <time>2022-02-02T15:17:11Z</time>
      </trkpt>
      <trkpt lat="44.87353" lon="-0.62755">
        <ele>16</ele>
        <time>2022-02-02T15:17:35Z</time>
      </trkpt>
      <trkpt lat="44.87353" lon="-0.62766">
        <ele>11.3</ele>
        <time>2022-02-02T15:18:29Z</time>
      </trkpt>
      <trkpt lat="44.87351" lon="-0.6277">
        <ele>11.6</ele>
        <time>2022-02-02T15:18:32Z</time>
      </trkpt>
      <trkpt lat="44.87349" lon="-0.62783">
        <ele>12</ele>
        <time>2022-02-02T15:18:42Z</time>
      </trkpt>
      <trkpt lat="44.87348" lon="-0.62796">
        <ele>12.6</ele>
        <time>2022-02-02T15:18:52Z</time>
      </trkpt>
      <trkpt lat="44.87348" lon="-0.62811">
        <ele>13.2</ele>
        <time>2022-02-02T15:18:59Z</time>
      </trkpt>
      <trkpt lat="44.87345" lon="-0.62825">
        <ele>13.8</ele>
        <time>2022-02-02T15:19:08Z</time>
      </trkpt>
      <trkpt lat="44.87343" lon="-0.62838">
        <ele>14.5</ele>
        <time>2022-02-02T15:19:16Z</time>
      </trkpt>
      <trkpt lat="44.87341" lon="-0.62852">
        <ele>15.4</ele>
        <time>2022-02-02T15:19:24Z</time>
      </trkpt>
      <trkpt lat="44.87341" lon="-0.62865">
        <ele>16.4</ele>
        <time>2022-02-02T15:19:31Z</time>
      </trkpt>
      <trkpt lat="44.87341" lon="-0.62879">
        <ele>17.5</ele>
        <time>2022-02-02T15:19:40Z</time>
      </trkpt>
      <trkpt lat="44.87338" lon="-0.62892">
        <ele>18.5</ele>
        <time>2022-02-02T15:19:50Z</time>
      </trkpt>
      <trkpt lat="44.87337" lon="-0.62905">
        <ele>19.5</ele>
        <time>2022-02-02T15:19:58Z</time>
      </trkpt>
      <trkpt lat="44.87336" lon="-0.62919">
        <ele>20.1</ele>
        <time>2022-02-02T15:20:06Z</time>
      </trkpt>
      <trkpt lat="44.87334" lon="-0.62931">
        <ele>20.7</ele>
        <time>2022-02-02T15:20:14Z</time>
      </trkpt>
      <trkpt lat="44.87331" lon="-0.62945">
        <ele>21.1</ele>
        <time>2022-02-02T15:20:23Z</time>
      </trkpt>
      <trkpt lat="44.87329" lon="-0.62959">
        <ele>21.4</ele>
        <time>2022-02-02T15:20:32Z</time>
      </trkpt>
      <trkpt lat="44.87329" lon="-0.6297">
        <ele>21.7</ele>
        <time>2022-02-02T15:20:49Z</time>
      </trkpt>
      <trkpt lat="44.8733" lon="-0.62982">
        <ele>23</ele>
        <time>2022-02-02T15:21:13Z</time>
      </trkpt>
      <trkpt lat="44.8733" lon="-0.62985">
        <ele>23</ele>
        <time>2022-02-02T15:21:17Z</time>
      </trkpt>
      <trkpt lat="44.87329" lon="-0.62987">
        <ele>23</ele>
        <time>2022-02-02T15:21:24Z</time>
      </trkpt>
      <trkpt lat="44.87328" lon="-0.62998">
        <ele>23.7</ele>
        <time>2022-02-02T15:21:40Z</time>
      </trkpt>
      <trkpt lat="44.87328" lon="-0.63011">
        <ele>23.6</ele>
        <time>2022-02-02T15:21:48Z</time>
      </trkpt>
      <trkpt lat="44.87326" lon="-0.63024">
        <ele>23.5</ele>
        <time>2022-02-02T15:21:58Z</time>
      </trkpt>
      <trkpt lat="44.87321" lon="-0.63036">
        <ele>23.4</ele>
        <time>2022-02-02T15:22:06Z</time>
      </trkpt>
      <trkpt lat="44.87313" lon="-0.63042">
        <ele>23.4</ele>
        <time>2022-02-02T15:22:14Z</time>
      </trkpt>
      <trkpt lat="44.87303" lon="-0.63041">
        <ele>23.4</ele>
        <time>2022-02-02T15:22:22Z</time>
      </trkpt>
      <trkpt lat="44.87294" lon="-0.63045">
        <ele>23.4</ele>
        <time>2022-02-02T15:22:31Z</time>
      </trkpt>
      <trkpt lat="44.87285" lon="-0.63046">
        <ele>23.3</ele>
        <time>2022-02-02T15:22:42Z</time>
      </trkpt>
      <trkpt lat="44.87275" lon="-0.63047">
        <ele>23.2</ele>
        <time>2022-02-02T15:22:50Z</time>
      </trkpt>
      <trkpt lat="44.87266" lon="-0.63046">
        <ele>23.1</ele>
        <time>2022-02-02T15:22:57Z</time>
      </trkpt>
      <trkpt lat="44.87257" lon="-0.63043">
        <ele>23.2</ele>
        <time>2022-02-02T15:23:05Z</time>
      </trkpt>
      <trkpt lat="44.87247" lon="-0.63041">
        <ele>23.2</ele>
        <time>2022-02-02T15:23:13Z</time>
      </trkpt>
      <trkpt lat="44.87239" lon="-0.63037">
        <ele>23.4</ele>
        <time>2022-02-02T15:23:21Z</time>
      </trkpt>
      <trkpt lat="44.8723" lon="-0.63031">
        <ele>23.5</ele>
        <time>2022-02-02T15:23:28Z</time>
      </trkpt>
      <trkpt lat="44.87222" lon="-0.63026">
        <ele>23.7</ele>
        <time>2022-02-02T15:23:37Z</time>
      </trkpt>
      <trkpt lat="44.87214" lon="-0.63021">
        <ele>24</ele>
        <time>2022-02-02T15:23:43Z</time>
      </trkpt>
      <trkpt lat="44.87205" lon="-0.63014">
        <ele>24.2</ele>
        <time>2022-02-02T15:23:51Z</time>
      </trkpt>
      <trkpt lat="44.87196" lon="-0.63008">
        <ele>24.4</ele>
        <time>2022-02-02T15:24:03Z</time>
      </trkpt>
      <trkpt lat="44.87188" lon="-0.63002">
        <ele>24.5</ele>
        <time>2022-02-02T15:24:12Z</time>
      </trkpt>
      <trkpt lat="44.87179" lon="-0.62996">
        <ele>24.5</ele>
        <time>2022-02-02T15:24:20Z</time>
      </trkpt>
      <trkpt lat="44.8717" lon="-0.62991">
        <ele>24.6</ele>
        <time>2022-02-02T15:24:27Z</time>
      </trkpt>
      <trkpt lat="44.87162" lon="-0.62983">
        <ele>24.6</ele>
        <time>2022-02-02T15:24:35Z</time>
      </trkpt>
      <trkpt lat="44.87153" lon="-0.62978">
        <ele>24.5</ele>
        <time>2022-02-02T15:24:44Z</time>
      </trkpt>
      <trkpt lat="44.87145" lon="-0.62973">
        <ele>24.4</ele>
        <time>2022-02-02T15:24:55Z</time>
      </trkpt>
      <trkpt lat="44.87137" lon="-0.62965">
        <ele>24.2</ele>
        <time>2022-02-02T15:25:04Z</time>
      </trkpt>
      <trkpt lat="44.87128" lon="-0.6296">
        <ele>23.9</ele>
        <time>2022-02-02T15:25:13Z</time>
      </trkpt>
      <trkpt lat="44.8712" lon="-0.62954">
        <ele>23.5</ele>
        <time>2022-02-02T15:25:22Z</time>
      </trkpt>
      <trkpt lat="44.87111" lon="-0.62949">
        <ele>23.2</ele>
        <time>2022-02-02T15:25:29Z</time>
      </trkpt>
      <trkpt lat="44.87102" lon="-0.62943">
        <ele>22.8</ele>
        <time>2022-02-02T15:25:38Z</time>
      </trkpt>
      <trkpt lat="44.87094" lon="-0.62936">
        <ele>22.5</ele>
        <time>2022-02-02T15:25:47Z</time>
      </trkpt>
      <trkpt lat="44.87085" lon="-0.6293">
        <ele>22.3</ele>
        <time>2022-02-02T15:25:56Z</time>
      </trkpt>
      <trkpt lat="44.87077" lon="-0.62922">
        <ele>22.1</ele>
        <time>2022-02-02T15:26:06Z</time>
      </trkpt>
      <trkpt lat="44.87071" lon="-0.62912">
        <ele>22</ele>
        <time>2022-02-02T15:26:13Z</time>
      </trkpt>
      <trkpt lat="44.87064" lon="-0.62904">
        <ele>22.1</ele>
        <time>2022-02-02T15:26:21Z</time>
      </trkpt>
      <trkpt lat="44.87056" lon="-0.62895">
        <ele>22.3</ele>
        <time>2022-02-02T15:26:31Z</time>
      </trkpt>
      <trkpt lat="44.8705" lon="-0.62885">
        <ele>22.5</ele>
        <time>2022-02-02T15:26:39Z</time>
      </trkpt>
      <trkpt lat="44.87042" lon="-0.62878">
        <ele>22.8</ele>
        <time>2022-02-02T15:26:47Z</time>
      </trkpt>
      <trkpt lat="44.87035" lon="-0.6287">
        <ele>23.2</ele>
        <time>2022-02-02T15:26:55Z</time>
      </trkpt>
      <trkpt lat="44.87028" lon="-0.6286">
        <ele>23.6</ele>
        <time>2022-02-02T15:27:04Z</time>
      </trkpt>
      <trkpt lat="44.87021" lon="-0.62851">
        <ele>24</ele>
        <time>2022-02-02T15:27:13Z</time>
      </trkpt>
      <trkpt lat="44.87013" lon="-0.62842">
        <ele>24.4</ele>
        <time>2022-02-02T15:27:22Z</time>
      </trkpt>
      <trkpt lat="44.87007" lon="-0.62831">
        <ele>24.6</ele>
        <time>2022-02-02T15:27:31Z</time>
      </trkpt>
      <trkpt lat="44.87002" lon="-0.6282">
        <ele>24.7</ele>
        <time>2022-02-02T15:27:40Z</time>
      </trkpt>
      <trkpt lat="44.86996" lon="-0.6281">
        <ele>24.7</ele>
        <time>2022-02-02T15:27:49Z</time>
      </trkpt>
      <trkpt lat="44.86989" lon="-0.62801">
        <ele>24.5</ele>
        <time>2022-02-02T15:27:57Z</time>
      </trkpt>
      <trkpt lat="44.86984" lon="-0.6279">
        <ele>24.3</ele>
        <time>2022-02-02T15:28:05Z</time>
      </trkpt>
      <trkpt lat="44.86976" lon="-0.62783">
        <ele>24</ele>
        <time>2022-02-02T15:28:14Z</time>
      </trkpt>
      <trkpt lat="44.8697" lon="-0.62773">
        <ele>23.6</ele>
        <time>2022-02-02T15:28:23Z</time>
      </trkpt>
      <trkpt lat="44.86963" lon="-0.62764">
        <ele>23.4</ele>
        <time>2022-02-02T15:28:32Z</time>
      </trkpt>
      <trkpt lat="44.86957" lon="-0.62754">
        <ele>23.1</ele>
        <time>2022-02-02T15:28:40Z</time>
      </trkpt>
      <trkpt lat="44.86951" lon="-0.62743">
        <ele>22.9</ele>
        <time>2022-02-02T15:28:48Z</time>
      </trkpt>
      <trkpt lat="44.86944" lon="-0.62735">
        <ele>22.7</ele>
        <time>2022-02-02T15:28:55Z</time>
      </trkpt>
      <trkpt lat="44.86936" lon="-0.62725">
        <ele>22.6</ele>
        <time>2022-02-02T15:29:06Z</time>
      </trkpt>
      <trkpt lat="44.86928" lon="-0.62717">
        <ele>22.7</ele>
        <time>2022-02-02T15:29:14Z</time>
      </trkpt>
      <trkpt lat="44.86923" lon="-0.62706">
        <ele>22.8</ele>
        <time>2022-02-02T15:29:24Z</time>
      </trkpt>
      <trkpt lat="44.86917" lon="-0.62695">
        <ele>23</ele>
        <time>2022-02-02T15:29:33Z</time>
      </trkpt>
      <trkpt lat="44.86911" lon="-0.62685">
        <ele>23.2</ele>
        <time>2022-02-02T15:29:43Z</time>
      </trkpt>
      <trkpt lat="44.86903" lon="-0.62675">
        <ele>23.5</ele>
        <time>2022-02-02T15:29:52Z</time>
      </trkpt>
      <trkpt lat="44.86897" lon="-0.62665">
        <ele>23.7</ele>
        <time>2022-02-02T15:30:01Z</time>
      </trkpt>
      <trkpt lat="44.86891" lon="-0.62655">
        <ele>23.9</ele>
        <time>2022-02-02T15:30:10Z</time>
      </trkpt>
      <trkpt lat="44.86885" lon="-0.62643">
        <ele>24.1</ele>
        <time>2022-02-02T15:30:19Z</time>
      </trkpt>
      <trkpt lat="44.86878" lon="-0.62635">
        <ele>24.3</ele>
        <time>2022-02-02T15:30:28Z</time>
      </trkpt>
      <trkpt lat="44.8687" lon="-0.62624">
        <ele>24.5</ele>
        <time>2022-02-02T15:30:36Z</time>
      </trkpt>
      <trkpt lat="44.86863" lon="-0.62614">
        <ele>24.5</ele>
        <time>2022-02-02T15:30:45Z</time>
      </trkpt>
      <trkpt lat="44.86856" lon="-0.62605">
        <ele>24.5</ele>
        <time>2022-02-02T15:30:53Z</time>
      </trkpt>
      <trkpt lat="44.86848" lon="-0.62596">
        <ele>24.5</ele>
        <time>2022-02-02T15:31:00Z</time>
      </trkpt>
      <trkpt lat="44.86842" lon="-0.62586">
        <ele>24.5</ele>
        <time>2022-02-02T15:31:10Z</time>
      </trkpt>
      <trkpt lat="44.86837" lon="-0.62576">
        <ele>24.5</ele>
        <time>2022-02-02T15:31:18Z</time>
      </trkpt>
      <trkpt lat="44.8683" lon="-0.62565">
        <ele>24.5</ele>
        <time>2022-02-02T15:31:28Z</time>
      </trkpt>
      <trkpt lat="44.86822" lon="-0.62558">
        <ele>24.4</ele>
        <time>2022-02-02T15:31:36Z</time>
      </trkpt>
      <trkpt lat="44.86815" lon="-0.62549">
        <ele>24.3</ele>
        <time>2022-02-02T15:31:46Z</time>
      </trkpt>
      <trkpt lat="44.86811" lon="-0.62537">
        <ele>24.2</ele>
        <time>2022-02-02T15:31:56Z</time>
      </trkpt>
      <trkpt lat="44.86806" lon="-0.62524">
        <ele>24.1</ele>
        <time>2022-02-02T15:32:05Z</time>
      </trkpt>
      <trkpt lat="44.868" lon="-0.62514">
        <ele>24</ele>
        <time>2022-02-02T15:32:14Z</time>
      </trkpt>
      <trkpt lat="44.86793" lon="-0.62504">
        <ele>24</ele>
        <time>2022-02-02T15:32:23Z</time>
      </trkpt>
      <trkpt lat="44.86787" lon="-0.62495">
        <ele>24</ele>
        <time>2022-02-02T15:32:32Z</time>
      </trkpt>
      <trkpt lat="44.86779" lon="-0.62486">
        <ele>24</ele>
        <time>2022-02-02T15:32:41Z</time>
      </trkpt>
      <trkpt lat="44.86773" lon="-0.62476">
        <ele>23.9</ele>
        <time>2022-02-02T15:32:49Z</time>
      </trkpt>
      <trkpt lat="44.86765" lon="-0.62468">
        <ele>23.9</ele>
        <time>2022-02-02T15:32:56Z</time>
      </trkpt>
      <trkpt lat="44.8676" lon="-0.62458">
        <ele>23.9</ele>
        <time>2022-02-02T15:33:04Z</time>
      </trkpt>
      <trkpt lat="44.86752" lon="-0.62449">
        <ele>23.8</ele>
        <time>2022-02-02T15:33:12Z</time>
      </trkpt>
      <trkpt lat="44.86746" lon="-0.62439">
        <ele>23.7</ele>
        <time>2022-02-02T15:33:20Z</time>
      </trkpt>
      <trkpt lat="44.86739" lon="-0.6243">
        <ele>23.6</ele>
        <time>2022-02-02T15:33:28Z</time>
      </trkpt>
      <trkpt lat="44.86732" lon="-0.62418">
        <ele>23.5</ele>
        <time>2022-02-02T15:33:37Z</time>
      </trkpt>
      <trkpt lat="44.86728" lon="-0.62407">
        <ele>23.5</ele>
        <time>2022-02-02T15:33:46Z</time>
      </trkpt>
      <trkpt lat="44.86724" lon="-0.62394">
        <ele>23.5</ele>
        <time>2022-02-02T15:33:54Z</time>
      </trkpt>
      <trkpt lat="44.86721" lon="-0.62382">
        <ele>23.5</ele>
        <time>2022-02-02T15:34:04Z</time>
      </trkpt>
      <trkpt lat="44.86718" lon="-0.6237">
        <ele>23.4</ele>
        <time>2022-02-02T15:34:14Z</time>
      </trkpt>
      <trkpt lat="44.86717" lon="-0.62356">
        <ele>23.5</ele>
        <time>2022-02-02T15:34:24Z</time>
      </trkpt>
      <trkpt lat="44.86715" lon="-0.62343">
        <ele>23.5</ele>
        <time>2022-02-02T15:34:32Z</time>
      </trkpt>
      <trkpt lat="44.86712" lon="-0.62329">
        <ele>23.5</ele>
        <time>2022-02-02T15:34:44Z</time>
      </trkpt>
      <trkpt lat="44.86713" lon="-0.62315">
        <ele>23.6</ele>
        <time>2022-02-02T15:34:51Z</time>
      </trkpt>
      <trkpt lat="44.86718" lon="-0.62303">
        <ele>23.8</ele>
        <time>2022-02-02T15:34:59Z</time>
      </trkpt>
      <trkpt lat="44.8672" lon="-0.62291">
        <ele>24</ele>
        <time>2022-02-02T15:35:05Z</time>
      </trkpt>
      <trkpt lat="44.86723" lon="-0.62277">
        <ele>24.2</ele>
        <time>2022-02-02T15:35:14Z</time>
      </trkpt>
      <trkpt lat="44.86729" lon="-0.62267">
        <ele>24.3</ele>
        <time>2022-02-02T15:35:21Z</time>
      </trkpt>
      <trkpt lat="44.86732" lon="-0.62253">
        <ele>24.3</ele>
        <time>2022-02-02T15:35:29Z</time>
      </trkpt>
      <trkpt lat="44.86739" lon="-0.62242">
        <ele>24.3</ele>
        <time>2022-02-02T15:35:38Z</time>
      </trkpt>
      <trkpt lat="44.86746" lon="-0.62233">
        <ele>24.3</ele>
        <time>2022-02-02T15:35:48Z</time>
      </trkpt>
      <trkpt lat="44.86753" lon="-0.62225">
        <ele>24.1</ele>
        <time>2022-02-02T15:35:57Z</time>
      </trkpt>
      <trkpt lat="44.86759" lon="-0.62213">
        <ele>23.9</ele>
        <time>2022-02-02T15:36:05Z</time>
      </trkpt>
      <trkpt lat="44.86764" lon="-0.62202">
        <ele>23.7</ele>
        <time>2022-02-02T15:36:16Z</time>
      </trkpt>
      <trkpt lat="44.86771" lon="-0.62192">
        <ele>23.5</ele>
        <time>2022-02-02T15:36:25Z</time>
      </trkpt>
      <trkpt lat="44.86776" lon="-0.6218">
        <ele>23.2</ele>
        <time>2022-02-02T15:36:33Z</time>
      </trkpt>
      <trkpt lat="44.86783" lon="-0.62172">
        <ele>23</ele>
        <time>2022-02-02T15:36:40Z</time>
      </trkpt>
      <trkpt lat="44.8679" lon="-0.62162">
        <ele>22.8</ele>
        <time>2022-02-02T15:36:48Z</time>
      </trkpt>
      <trkpt lat="44.86795" lon="-0.62152">
        <ele>22.6</ele>
        <time>2022-02-02T15:36:55Z</time>
      </trkpt>
      <trkpt lat="44.86801" lon="-0.62141">
        <ele>22.4</ele>
        <time>2022-02-02T15:37:04Z</time>
      </trkpt>
      <trkpt lat="44.86809" lon="-0.62134">
        <ele>22.3</ele>
        <time>2022-02-02T15:37:11Z</time>
      </trkpt>
      <trkpt lat="44.86816" lon="-0.62129">
        <ele>22.2</ele>
        <time>2022-02-02T15:37:24Z</time>
      </trkpt>
      <trkpt lat="44.86823" lon="-0.62125">
        <ele>23.3</ele>
        <time>2022-02-02T15:37:41Z</time>
      </trkpt>
      <trkpt lat="44.86826" lon="-0.62122">
        <ele>23.1</ele>
        <time>2022-02-02T15:37:44Z</time>
      </trkpt>
      <trkpt lat="44.86833" lon="-0.62115">
        <ele>22.9</ele>
        <time>2022-02-02T15:37:53Z</time>
      </trkpt>
      <trkpt lat="44.86843" lon="-0.62109">
        <ele>22.6</ele>
        <time>2022-02-02T15:38:02Z</time>
      </trkpt>
      <trkpt lat="44.86852" lon="-0.62105">
        <ele>22.3</ele>
        <time>2022-02-02T15:38:11Z</time>
      </trkpt>
      <trkpt lat="44.8686" lon="-0.62098">
        <ele>22.1</ele>
        <time>2022-02-02T15:38:19Z</time>
      </trkpt>
      <trkpt lat="44.86869" lon="-0.62091">
        <ele>21.8</ele>
        <time>2022-02-02T15:38:28Z</time>
      </trkpt>
      <trkpt lat="44.86877" lon="-0.62088">
        <ele>21.5</ele>
        <time>2022-02-02T15:38:35Z</time>
      </trkpt>
      <trkpt lat="44.86886" lon="-0.62083">
        <ele>21.2</ele>
        <time>2022-02-02T15:38:42Z</time>
      </trkpt>
      <trkpt lat="44.86896" lon="-0.62078">
        <ele>20.8</ele>
        <time>2022-02-02T15:38:52Z</time>
      </trkpt>
      <trkpt lat="44.86904" lon="-0.62071">
        <ele>20.5</ele>
        <time>2022-02-02T15:39:00Z</time>
      </trkpt>
      <trkpt lat="44.86913" lon="-0.62068">
        <ele>20.1</ele>
        <time>2022-02-02T15:39:08Z</time>
      </trkpt>
      <trkpt lat="44.86922" lon="-0.62063">
        <ele>19.8</ele>
        <time>2022-02-02T15:39:16Z</time>
      </trkpt>
      <trkpt lat="44.8693" lon="-0.62056">
        <ele>19.6</ele>
        <time>2022-02-02T15:39:25Z</time>
      </trkpt>
      <trkpt lat="44.86938" lon="-0.62049">
        <ele>19.5</ele>
        <time>2022-02-02T15:39:34Z</time>
      </trkpt>
      <trkpt lat="44.86946" lon="-0.62043">
        <ele>19.5</ele>
        <time>2022-02-02T15:39:43Z</time>
      </trkpt>
      <trkpt lat="44.86954" lon="-0.62037">
        <ele>19.5</ele>
        <time>2022-02-02T15:39:51Z</time>
      </trkpt>
      <trkpt lat="44.86962" lon="-0.62029">
        <ele>19.6</ele>
        <time>2022-02-02T15:40:01Z</time>
      </trkpt>
      <trkpt lat="44.86972" lon="-0.62026">
        <ele>19.8</ele>
        <time>2022-02-02T15:40:09Z</time>
      </trkpt>
      <trkpt lat="44.86981" lon="-0.62022">
        <ele>20.1</ele>
        <time>2022-02-02T15:40:18Z</time>
      </trkpt>
      <trkpt lat="44.8699" lon="-0.62015">
        <ele>20.4</ele>
        <time>2022-02-02T15:40:27Z</time>
      </trkpt>
      <trkpt lat="44.86999" lon="-0.62008">
        <ele>20.8</ele>
        <time>2022-02-02T15:40:36Z</time>
      </trkpt>
      <trkpt lat="44.87008" lon="-0.62002">
        <ele>21.2</ele>
        <time>2022-02-02T15:40:46Z</time>
      </trkpt>
      <trkpt lat="44.87016" lon="-0.61996">
        <ele>21.5</ele>
        <time>2022-02-02T15:40:54Z</time>
      </trkpt>
      <trkpt lat="44.87026" lon="-0.61996">
        <ele>21.9</ele>
        <time>2022-02-02T15:41:02Z</time>
      </trkpt>
      <trkpt lat="44.87035" lon="-0.61992">
        <ele>22.3</ele>
        <time>2022-02-02T15:41:08Z</time>
      </trkpt>
      <trkpt lat="44.87045" lon="-0.61988">
        <ele>22.5</ele>
        <time>2022-02-02T15:41:16Z</time>
      </trkpt>
      <trkpt lat="44.87054" lon="-0.61985">
        <ele>22.7</ele>
        <time>2022-02-02T15:41:23Z</time>
      </trkpt>
      <trkpt lat="44.87063" lon="-0.61983">
        <ele>22.7</ele>
        <time>2022-02-02T15:41:32Z</time>
      </trkpt>
      <trkpt lat="44.87073" lon="-0.61982">
        <ele>22.7</ele>
        <time>2022-02-02T15:41:41Z</time>
      </trkpt>
      <trkpt lat="44.87082" lon="-0.61981">
        <ele>22.6</ele>
        <time>2022-02-02T15:41:49Z</time>
      </trkpt>
      <trkpt lat="44.87092" lon="-0.61976">
        <ele>22.5</ele>
        <time>2022-02-02T15:41:57Z</time>
      </trkpt>
      <trkpt lat="44.87103" lon="-0.61976">
        <ele>22.4</ele>
        <time>2022-02-02T15:42:07Z</time>
      </trkpt>
      <trkpt lat="44.87113" lon="-0.61977">
        <ele>22.3</ele>
        <time>2022-02-02T15:42:17Z</time>
      </trkpt>
      <trkpt lat="44.87122" lon="-0.61975">
        <ele>22.2</ele>
        <time>2022-02-02T15:42:25Z</time>
      </trkpt>
      <trkpt lat="44.87132" lon="-0.61975">
        <ele>22.1</ele>
        <time>2022-02-02T15:42:32Z</time>
      </trkpt>
      <trkpt lat="44.87141" lon="-0.61976">
        <ele>22</ele>
        <time>2022-02-02T15:42:39Z</time>
      </trkpt>
      <trkpt lat="44.8715" lon="-0.61972">
        <ele>21.8</ele>
        <time>2022-02-02T15:42:46Z</time>
      </trkpt>
      <trkpt lat="44.87159" lon="-0.6197">
        <ele>21.6</ele>
        <time>2022-02-02T15:42:54Z</time>
      </trkpt>
      <trkpt lat="44.87169" lon="-0.61968">
        <ele>21.5</ele>
        <time>2022-02-02T15:43:02Z</time>
      </trkpt>
      <trkpt lat="44.87179" lon="-0.6197">
        <ele>21.2</ele>
        <time>2022-02-02T15:43:12Z</time>
      </trkpt>
      <trkpt lat="44.87188" lon="-0.6197">
        <ele>21</ele>
        <time>2022-02-02T15:43:22Z</time>
      </trkpt>
      <trkpt lat="44.87198" lon="-0.61965">
        <ele>20.9</ele>
        <time>2022-02-02T15:43:31Z</time>
      </trkpt>
      <trkpt lat="44.87207" lon="-0.61963">
        <ele>20.8</ele>
        <time>2022-02-02T15:43:39Z</time>
      </trkpt>
      <trkpt lat="44.87217" lon="-0.61962">
        <ele>20.8</ele>
        <time>2022-02-02T15:43:47Z</time>
      </trkpt>
      <trkpt lat="44.87226" lon="-0.61958">
        <ele>20.8</ele>
        <time>2022-02-02T15:43:57Z</time>
      </trkpt>
      <trkpt lat="44.87235" lon="-0.61956">
        <ele>20.8</ele>
        <time>2022-02-02T15:44:04Z</time>
      </trkpt>
      <trkpt lat="44.87245" lon="-0.61957">
        <ele>20.8</ele>
        <time>2022-02-02T15:44:11Z</time>
      </trkpt>
      <trkpt lat="44.87254" lon="-0.61956">
        <ele>21</ele>
        <time>2022-02-02T15:44:20Z</time>
      </trkpt>
      <trkpt lat="44.87263" lon="-0.61952">
        <ele>21.3</ele>
        <time>2022-02-02T15:44:28Z</time>
      </trkpt>
      <trkpt lat="44.87272" lon="-0.61948">
        <ele>21.6</ele>
        <time>2022-02-02T15:44:36Z</time>
      </trkpt>
      <trkpt lat="44.87281" lon="-0.61947">
        <ele>21.9</ele>
        <time>2022-02-02T15:44:42Z</time>
      </trkpt>
      <trkpt lat="44.8729" lon="-0.61949">
        <ele>22.1</ele>
        <time>2022-02-02T15:44:50Z</time>
      </trkpt>
      <trkpt lat="44.87298" lon="-0.61955">
        <ele>22.2</ele>
        <time>2022-02-02T15:45:00Z</time>
      </trkpt>
      <trkpt lat="44.87307" lon="-0.61958">
        <ele>22.2</ele>
        <time>2022-02-02T15:45:08Z</time>
      </trkpt>
      <trkpt lat="44.87317" lon="-0.61959">
        <ele>22.2</ele>
        <time>2022-02-02T15:45:20Z</time>
      </trkpt>
      <trkpt lat="44.87325" lon="-0.61952">
        <ele>22.2</ele>
        <time>2022-02-02T15:45:29Z</time>
      </trkpt>
      <trkpt lat="44.87328" lon="-0.61939">
        <ele>22.2</ele>
        <time>2022-02-02T15:45:39Z</time>
      </trkpt>
      <trkpt lat="44.87339" lon="-0.61938">
        <ele>22.3</ele>
        <time>2022-02-02T15:45:56Z</time>
      </trkpt>
      <trkpt lat="44.87342" lon="-0.61937">
        <ele>22.2</ele>
        <time>2022-02-02T15:46:07Z</time>
      </trkpt>
      <trkpt lat="44.87346" lon="-0.61924">
        <ele>18</ele>
        <time>2022-02-02T15:46:51Z</time>
      </trkpt>
      <trkpt lat="44.87345" lon="-0.61917">
        <ele>17.7</ele>
        <time>2022-02-02T15:46:56Z</time>
      </trkpt>
      <trkpt lat="44.87338" lon="-0.61891">
        <ele>17.5</ele>
        <time>2022-02-02T15:47:21Z</time>
      </trkpt>
      <trkpt lat="44.87337" lon="-0.61878">
        <ele>17.4</ele>
        <time>2022-02-02T15:47:28Z</time>
      </trkpt>
      <trkpt lat="44.87334" lon="-0.61865">
        <ele>17.4</ele>
        <time>2022-02-02T15:47:37Z</time>
      </trkpt>
      <trkpt lat="44.87331" lon="-0.61853">
        <ele>17.4</ele>
        <time>2022-02-02T15:47:45Z</time>
      </trkpt>
      <trkpt lat="44.8733" lon="-0.6184">
        <ele>17</ele>
        <time>2022-02-02T15:47:54Z</time>
      </trkpt>
      <trkpt lat="44.8733" lon="-0.61826">
        <ele>16.6</ele>
        <time>2022-02-02T15:48:01Z</time>
      </trkpt>
      <trkpt lat="44.87329" lon="-0.61813">
        <ele>16.5</ele>
        <time>2022-02-02T15:48:11Z</time>
      </trkpt>
      <trkpt lat="44.87327" lon="-0.61799">
        <ele>16.5</ele>
        <time>2022-02-02T15:48:21Z</time>
      </trkpt>
      <trkpt lat="44.87322" lon="-0.61788">
        <ele>16.5</ele>
        <time>2022-02-02T15:48:35Z</time>
      </trkpt>
      <trkpt lat="44.87316" lon="-0.61765">
        <ele>16.5</ele>
        <time>2022-02-02T15:48:56Z</time>
      </trkpt>
      <trkpt lat="44.87308" lon="-0.61755">
        <ele>16.6</ele>
        <time>2022-02-02T15:49:05Z</time>
      </trkpt>
      <trkpt lat="44.87301" lon="-0.61745">
        <ele>16.7</ele>
        <time>2022-02-02T15:49:14Z</time>
      </trkpt>
      <trkpt lat="44.87295" lon="-0.61735">
        <ele>16.7</ele>
        <time>2022-02-02T15:49:23Z</time>
      </trkpt>
      <trkpt lat="44.87288" lon="-0.61726">
        <ele>16.7</ele>
        <time>2022-02-02T15:49:31Z</time>
      </trkpt>
      <trkpt lat="44.87281" lon="-0.61716">
        <ele>16.7</ele>
        <time>2022-02-02T15:49:40Z</time>
      </trkpt>
      <trkpt lat="44.87275" lon="-0.61706">
        <ele>16.7</ele>
        <time>2022-02-02T15:49:47Z</time>
      </trkpt>
      <trkpt lat="44.87268" lon="-0.61696">
        <ele>16.7</ele>
        <time>2022-02-02T15:49:56Z</time>
      </trkpt>
      <trkpt lat="44.87262" lon="-0.61686">
        <ele>16.7</ele>
        <time>2022-02-02T15:50:05Z</time>
      </trkpt>
      <trkpt lat="44.87256" lon="-0.61674">
        <ele>16.8</ele>
        <time>2022-02-02T15:50:13Z</time>
      </trkpt>
      <trkpt lat="44.87251" lon="-0.61663">
        <ele>16.9</ele>
        <time>2022-02-02T15:50:21Z</time>
      </trkpt>
      <trkpt lat="44.87244" lon="-0.61653">
        <ele>16.9</ele>
        <time>2022-02-02T15:50:30Z</time>
      </trkpt>
      <trkpt lat="44.87237" lon="-0.61643">
        <ele>16.8</ele>
        <time>2022-02-02T15:50:38Z</time>
      </trkpt>
      <trkpt lat="44.87228" lon="-0.61639">
        <ele>16.7</ele>
        <time>2022-02-02T15:50:47Z</time>
      </trkpt>
      <trkpt lat="44.87221" lon="-0.6163">
        <ele>16.6</ele>
        <time>2022-02-02T15:50:54Z</time>
      </trkpt>
      <trkpt lat="44.87216" lon="-0.61618">
        <ele>16.5</ele>
        <time>2022-02-02T15:51:03Z</time>
      </trkpt>
      <trkpt lat="44.87209" lon="-0.61609">
        <ele>16.5</ele>
        <time>2022-02-02T15:51:13Z</time>
      </trkpt>
      <trkpt lat="44.87203" lon="-0.61598">
        <ele>16.4</ele>
        <time>2022-02-02T15:51:25Z</time>
      </trkpt>
      <trkpt lat="44.87202" lon="-0.61584">
        <ele>16.3</ele>
        <time>2022-02-02T15:51:34Z</time>
      </trkpt>
      <trkpt lat="44.87199" lon="-0.61572">
        <ele>16.2</ele>
        <time>2022-02-02T15:51:42Z</time>
      </trkpt>
      <trkpt lat="44.87199" lon="-0.61559">
        <ele>16.1</ele>
        <time>2022-02-02T15:51:50Z</time>
      </trkpt>
      <trkpt lat="44.87205" lon="-0.61548">
        <ele>16</ele>
        <time>2022-02-02T15:51:58Z</time>
      </trkpt>
      <trkpt lat="44.87201" lon="-0.61535">
        <ele>16.1</ele>
        <time>2022-02-02T15:52:11Z</time>
      </trkpt>
      <trkpt lat="44.87195" lon="-0.61524">
        <ele>16.2</ele>
        <time>2022-02-02T15:52:24Z</time>
      </trkpt>
      <trkpt lat="44.87189" lon="-0.61516">
        <ele>16.3</ele>
        <time>2022-02-02T15:52:34Z</time>
      </trkpt>
      <trkpt lat="44.87183" lon="-0.61505">
        <ele>16.4</ele>
        <time>2022-02-02T15:52:43Z</time>
      </trkpt>
      <trkpt lat="44.87175" lon="-0.61498">
        <ele>16.5</ele>
        <time>2022-02-02T15:52:51Z</time>
      </trkpt>
      <trkpt lat="44.87169" lon="-0.61488">
        <ele>16.5</ele>
        <time>2022-02-02T15:53:00Z</time>
      </trkpt>
      <trkpt lat="44.87164" lon="-0.61477">
        <ele>16.6</ele>
        <time>2022-02-02T15:53:09Z</time>
      </trkpt>
      <trkpt lat="44.87158" lon="-0.61467">
        <ele>16.7</ele>
        <time>2022-02-02T15:53:18Z</time>
      </trkpt>
      <trkpt lat="44.8715" lon="-0.61457">
        <ele>16.8</ele>
        <time>2022-02-02T15:53:30Z</time>
      </trkpt>
      <trkpt lat="44.87144" lon="-0.61447">
        <ele>16.9</ele>
        <time>2022-02-02T15:53:38Z</time>
      </trkpt>
      <trkpt lat="44.87137" lon="-0.61439">
        <ele>16.9</ele>
        <time>2022-02-02T15:53:49Z</time>
      </trkpt>
      <trkpt lat="44.87132" lon="-0.61427">
        <ele>16.8</ele>
        <time>2022-02-02T15:53:56Z</time>
      </trkpt>
      <trkpt lat="44.87134" lon="-0.61412">
        <ele>16.8</ele>
        <time>2022-02-02T15:54:04Z</time>
      </trkpt>
      <trkpt lat="44.87134" lon="-0.61399">
        <ele>16.9</ele>
        <time>2022-02-02T15:54:18Z</time>
      </trkpt>
      <trkpt lat="44.87128" lon="-0.61389">
        <ele>17</ele>
        <time>2022-02-02T15:54:28Z</time>
      </trkpt>
      <trkpt lat="44.87119" lon="-0.61382">
        <ele>17.2</ele>
        <time>2022-02-02T15:54:41Z</time>
      </trkpt>
      <trkpt lat="44.87119" lon="-0.61369">
        <ele>17.4</ele>
        <time>2022-02-02T15:54:47Z</time>
      </trkpt>
      <trkpt lat="44.87127" lon="-0.61343">
        <ele>17.5</ele>
        <time>2022-02-02T15:55:12Z</time>
      </trkpt>
      <trkpt lat="44.87131" lon="-0.61332">
        <ele>17.6</ele>
        <time>2022-02-02T15:55:21Z</time>
      </trkpt>
      <trkpt lat="44.87134" lon="-0.61319">
        <ele>17.7</ele>
        <time>2022-02-02T15:55:30Z</time>
      </trkpt>
      <trkpt lat="44.87137" lon="-0.61307">
        <ele>17.7</ele>
        <time>2022-02-02T15:55:39Z</time>
      </trkpt>
      <trkpt lat="44.87142" lon="-0.61295">
        <ele>17.8</ele>
        <time>2022-02-02T15:55:48Z</time>
      </trkpt>
      <trkpt lat="44.87145" lon="-0.61281">
        <ele>17.9</ele>
        <time>2022-02-02T15:55:58Z</time>
      </trkpt>
      <trkpt lat="44.87152" lon="-0.6127">
        <ele>17.9</ele>
        <time>2022-02-02T15:56:08Z</time>
      </trkpt>
      <trkpt lat="44.8716" lon="-0.61263">
        <ele>17.8</ele>
        <time>2022-02-02T15:56:19Z</time>
      </trkpt>
      <trkpt lat="44.8717" lon="-0.61259">
        <ele>17.7</ele>
        <time>2022-02-02T15:56:28Z</time>
      </trkpt>
      <trkpt lat="44.87176" lon="-0.61249">
        <ele>17.5</ele>
        <time>2022-02-02T15:56:43Z</time>
      </trkpt>
      <trkpt lat="44.87179" lon="-0.61235">
        <ele>17.1</ele>
        <time>2022-02-02T15:56:51Z</time>
      </trkpt>
      <trkpt lat="44.87181" lon="-0.61223">
        <ele>16.7</ele>
        <time>2022-02-02T15:56:59Z</time>
      </trkpt>
      <trkpt lat="44.87183" lon="-0.61209">
        <ele>16.4</ele>
        <time>2022-02-02T15:57:09Z</time>
      </trkpt>
      <trkpt lat="44.87186" lon="-0.61197">
        <ele>16</ele>
        <time>2022-02-02T15:57:17Z</time>
      </trkpt>
      <trkpt lat="44.87191" lon="-0.61184">
        <ele>15.7</ele>
        <time>2022-02-02T15:57:27Z</time>
      </trkpt>
      <trkpt lat="44.87191" lon="-0.61171">
        <ele>15.5</ele>
        <time>2022-02-02T15:57:34Z</time>
      </trkpt>
      <trkpt lat="44.87194" lon="-0.61158">
        <ele>15.2</ele>
        <time>2022-02-02T15:57:44Z</time>
      </trkpt>
      <trkpt lat="44.87195" lon="-0.61144">
        <ele>14.9</ele>
        <time>2022-02-02T15:57:52Z</time>
      </trkpt>
      <trkpt lat="44.87196" lon="-0.61131">
        <ele>14.7</ele>
        <time>2022-02-02T15:58:00Z</time>
      </trkpt>
      <trkpt lat="44.87199" lon="-0.61118">
        <ele>14.5</ele>
        <time>2022-02-02T15:58:11Z</time>
      </trkpt>
      <trkpt lat="44.87201" lon="-0.61104">
        <ele>14.5</ele>
        <time>2022-02-02T15:58:19Z</time>
      </trkpt>
      <trkpt lat="44.87202" lon="-0.61092">
        <ele>14.6</ele>
        <time>2022-02-02T15:58:27Z</time>
      </trkpt>
      <trkpt lat="44.87203" lon="-0.61079">
        <ele>14.7</ele>
        <time>2022-02-02T15:58:36Z</time>
      </trkpt>
      <trkpt lat="44.87205" lon="-0.61066">
        <ele>14.9</ele>
        <time>2022-02-02T15:58:45Z</time>
      </trkpt>
      <trkpt lat="44.87206" lon="-0.61053">
        <ele>15</ele>
        <time>2022-02-02T15:58:54Z</time>
      </trkpt>
      <trkpt lat="44.87209" lon="-0.6104">
        <ele>15.1</ele>
        <time>2022-02-02T15:59:02Z</time>
      </trkpt>
      <trkpt lat="44.87211" lon="-0.61027">
        <ele>15.2</ele>
        <time>2022-02-02T15:59:10Z</time>
      </trkpt>
      <trkpt lat="44.87214" lon="-0.61013">
        <ele>15.3</ele>
        <time>2022-02-02T15:59:20Z</time>
      </trkpt>
      <trkpt lat="44.87213" lon="-0.60999">
        <ele>15.5</ele>
        <time>2022-02-02T15:59:29Z</time>
      </trkpt>
      <trkpt lat="44.87216" lon="-0.60986">
        <ele>15.6</ele>
        <time>2022-02-02T15:59:38Z</time>
      </trkpt>
      <trkpt lat="44.87219" lon="-0.60976">
        <ele>15.7</ele>
        <time>2022-02-02T15:59:54Z</time>
      </trkpt>
    </trkseg>
  </trk>
</gpx>